Home > Products > Valid Products > MTR

000
SAUS46 KLOX 192215
MTRMWS
METAR KMWS 192200Z 23007G09KT 19/09 RMK SNOW DEPTH 4.00





000
SAUS46 KLOX 192156
MTR9L2
METAR K9L2 192155Z AUTO 26008G16KT 240V300 10SM FEW065 28/04 A2993
RMK AO2 SLP123 T02780039 $





000
SAUS46 KLOX 192154
MTRLAX
METAR KLAX 192153Z 25010KT 10SM FEW050 SCT150 BKN220 19/12 A3000 RMK
AO2 SLP157 T01890122 $





000
SAUS46 KLOX 192154
MTRMWS
METAR KMWS 192145Z 22005G08KT 18/07 RMK SNOW DEPTH 4.00





000
SAUS46 KLOX 192152
MTRSMX
METAR KSMX 192151Z 30016G22KT 10SM CLR 19/09 A3004 RMK AO2 PK WND
30026/2125 SLP172 T01890094 $





000
SAUS46 KLOX 192149
MTRSDB
METAR KSDB 192148Z AUTO 35021G24KT 10SM CLR 19/06 A3010 RMK AO2 PK
WND 35027/2059 SLP152 T01940056





000
SAUS46 KLOX 192148
MTRCQT
METAR KCQT 192147Z AUTO 00000KT 10SM CLR 21/11 A2998 RMK AO2 SLP150
T02110111





000
SAUS46 KLOX 192136
MTRMWS
METAR KMWS 192130Z 23500G00KT MM/08 RMK SNOW DEPTH 4.00





000
SAUS46 KLOX 192115
MTRMWS
METAR KMWS 192100Z 23007G10KT 18/08 RMK SNOW DEPTH 4.00





000
SAUS46 KLOX 192057
MTR9L2
METAR K9L2 192055Z AUTO 24008G17KT 10SM FEW065 27/03 A2995 RMK AO2
SLP129 T02720028 57013 $





000
SAUS46 KLOX 192054
MTRLAX
METAR KLAX 192053Z 26012KT 10SM FEW050 SCT150 BKN220 19/11 A3001 RMK
AO2 SLP161 T01890111 58005 $





000
SAUS46 KLOX 192054
MTRMWS
METAR KMWS 192045Z 23005G08KT 18/09 RMK SNOW DEPTH 4.00





000
SAUS46 KLOX 192053
MTRSMX
METAR KSMX 192051Z 30016KT 9SM CLR 19/10 A3004 RMK AO2 SLP172
T01890100 55009 $





000
SAUS46 KLOX 192049
MTRSDB
METAR KSDB 192048Z AUTO 35016G24KT 10SM CLR 20/06 A3011 RMK AO2 PK
WND 36027/1955 SLP153 T02000061 51001





000
SAUS46 KLOX 192048
MTRCQT
METAR KCQT 192047Z AUTO 26004KT 10SM CLR 21/12 A2999 RMK AO2 SLP154
T02110117 58002





000
SAUS46 KLOX 192036
MTRMWS
METAR KMWS 192030Z 23500G00KT MM/07 RMK SNOW DEPTH 4.00





000
SAUS46 KLOX 192015
MTRMWS
METAR KMWS 192000Z 21504G06KT 19/08 RMK SNOW DEPTH 3.00





000
SAUS46 KLOX 191957 COR
MTRLAX
METAR KLAX 191953Z 25011G17KT 10SM FEW045 SCT150 BKN220 19/12 A3002
RMK AO2 SLP164 T01890117 $





000
SAUS46 KLOX 191957
MTR9L2
METAR K9L2 191955Z AUTO VRB03KT 10SM CLR 25/06 A2996 RMK AO2 SLP134
T02500056 $





000
SAUS46 KLOX 191956 COR
MTRLAX
METAR KLAX 191953Z 25011G17KT 10SM FEW045 SCT150 BKN220 19/12 A3002
RMK AO2 SLP164 T01890117 $





000
SAUS46 KLOX 191955 COR
MTRLAX
METAR KLAX 191953Z 25011G17KT 10SM FEW045 SCT150 BKN220 19/12 A3002
RMK AO2 SLP164 T01890117 $





000
SAUS46 KLOX 191954
MTRLAX
METAR KLAX 191953Z 25011G17KT 10SM FEW045 SCT150 BKN220 19/12 A3002
RMK AO2 SLP164 T01890117 $





000
SAUS46 KLOX 191954
MTRMWS
METAR KMWS 191945Z 23005G05KT 20/07 RMK SNOW DEPTH 4.00





000
SAUS46 KLOX 191952
MTRSMX
METAR KSMX 191951Z 31008KT 10SM CLR 19/11 A3003 RMK AO2 SLP171
T01940106





000
SAUS46 KLOX 191949
MTRSDB
METAR KSDB 191948Z AUTO 35018G23KT 10SM CLR 19/06 A3011 RMK AO2 PK
WND 34028/1936 SLP155 T01890061





000
SAUS46 KLOX 191948
MTRCQT
METAR KCQT 191947Z AUTO VRB03KT 10SM CLR 22/12 A3000 RMK AO2 SLP156
T02170117





000
SAUS46 KLOX 191936
MTRMWS
METAR KMWS 191930Z 23500G00KT MM/06 RMK SNOW DEPTH 3.00





000
SAUS46 KLOX 191915
MTRMWS
METAR KMWS 191900Z 21503G04KT 18/04 RMK SNOW DEPTH 3.00





000
SAUS46 KLOX 191857
MTR9L2
METAR K9L2 191855Z AUTO VRB04KT 10SM CLR 24/06 A2998 RMK AO2 SLP140
T02390056 $





000
SAUS46 KLOX 191854
MTRLAX
METAR KLAX 191853Z 26009KT 10SM FEW022 BKN220 18/12 A3003 RMK AO2
SLP167 T01830122 $





000
SAUS46 KLOX 191854
MTRMWS
METAR KMWS 191845Z 23503G05KT 18/03 RMK SNOW DEPTH 3.00





000
SAUS46 KLOX 191853
MTRSMX
METAR KSMX 191851Z 28006KT 10SM CLR 19/11 A3005 RMK AO2 SLP178
T01940106





000
SAUS46 KLOX 191849
MTRSDB
METAR KSDB 191848Z AUTO 35018G22KT 10SM CLR 19/05 A3011 RMK AO2
SLP155 T01940050





000
SAUS46 KLOX 191848
MTRCQT
METAR KCQT 191847Z AUTO VRB03KT 10SM CLR 21/12 A3001 RMK AO2 SLP159
T02060117





000
SAUS46 KLOX 191836
MTRMWS
METAR KMWS 191830Z 23500G00KT MM/03 RMK SNOW DEPTH 4.00





000
SAUS46 KLOX 191815
MTRMWS
METAR KMWS 191800Z 24002G03KT 18/02 RMK SNOW DEPTH 3.00





000
SAUS46 KLOX 191756
MTR9L2
METAR K9L2 191755Z AUTO VRB03KT 10SM CLR 22/06 A2999 RMK AO2 SLP144
T02170056 10217 20111 51009 $





000
SAUS46 KLOX 191754
MTRMWS
METAR KMWS 191745Z 24502G04KT 18/04 RMK SNOW DEPTH 3.00





000
SAUS46 KLOX 191754
MTRLAX
METAR KLAX 191753Z 24010KT 10SM FEW020 BKN220 18/12 A3002 RMK AO2
SLP166 T01830122 10189 20144 53013 $





000
SAUS46 KLOX 191753
MTRSMX
METAR KSMX 191751Z VRB03KT 9SM FEW014 16/10 A3006 RMK AO2 SLP182
T01610100 10161 20122 52000





000
SAUS46 KLOX 191749
MTRSDB
METAR KSDB 191748Z AUTO 35018G21KT 10SM CLR 17/07 A3010 RMK AO2
SLP155 T01720072 10172 20111 53017





000
SAUS46 KLOX 191748
MTRCQT
METAR KCQT 191747Z AUTO 00000KT 10SM CLR 21/12 A3000 RMK AO2 SLP156
T02060122 10206 20139 53007





000
SAUS46 KLOX 191736
MTRMWS
METAR KMWS 191730Z 23500G00KT MM/02 RMK SNOW DEPTH 3.00





000
SAUS46 KLOX 191715
MTRMWS
METAR KMWS 191700Z 26002G03KT 18/02 RMK SNOW DEPTH 3.00





000
SAUS46 KLOX 191657
MTR9L2
METAR K9L2 191655Z AUTO 00000KT 10SM CLR 20/06 A2998 RMK AO2 SLP143
T02000056 $





000
SAUS46 KLOX 191654
MTRLAX
METAR KLAX 191653Z 25006KT 8SM FEW018 SCT220 18/12 A3000 RMK AO2
SLP158 T01780117 $





000
SAUS46 KLOX 191654
MTRMWS
METAR KMWS 191645Z 27501G02KT 18/00 RMK SNOW DEPTH 3.00





000
SAUS46 KLOX 191652
MTRSMX
METAR KSMX 191651Z 00000KT 10SM SCT008 BKN012 14/09 A3006 RMK AO2
SLP182 T01390094





000
SAUS46 KLOX 191649
MTRSMX
SPECI KSMX 191648Z 00000KT 10SM BKN012 14/10 A3006 RMK AO2





000
SAUS46 KLOX 191649
MTRSDB
METAR KSDB 191648Z AUTO 34018G22KT 10SM CLR 16/07 A3008 RMK AO2
SLP149 T01610067





000
SAUS46 KLOX 191648
MTRCQT
METAR KCQT 191647Z AUTO VRB03KT 9SM CLR 20/12 A2999 RMK AO2 SLP152
T02000122





000
SAUS46 KLOX 191636
MTRMWS
METAR KMWS 191630Z 23500G00KT MM/01 RMK SNOW DEPTH 3.00





000
SAUS46 KLOX 191615
MTRMWS
METAR KMWS 191600Z 10001G02KT 17/01 RMK SNOW DEPTH 3.00





000
SAUS46 KLOX 191557
MTR9L2
METAR K9L2 191555Z AUTO 17003KT 10SM CLR 17/05 A2997 RMK AO2 SLP141
T01720050 $





000
SAUS46 KLOX 191554
MTRLAX
METAR KLAX 191553Z 26004KT 7SM FEW015 SCT220 16/13 A2999 RMK AO2
SLP153 T01610128 $





000
SAUS46 KLOX 191554
MTRMWS
METAR KMWS 191545Z 03001G02KT 15/M01 RMK SNOW DEPTH 3.00





000
SAUS46 KLOX 191553
MTRSMX
METAR KSMX 191551Z 00000KT 8SM OVC008 13/09 A3005 RMK AO2 SLP178
T01280094





000
SAUS46 KLOX 191549
MTRSDB
METAR KSDB 191548Z AUTO 35015G22KT 10SM CLR 16/07 A3007 RMK AO2
SLP146 T01610067





000
SAUS46 KLOX 191548
MTRCQT
METAR KCQT 191547Z AUTO 00000KT 7SM CLR 18/12 A2998 RMK AO2 SLP149
T01780122





000
SAUS46 KLOX 191536
MTRMWS
METAR KMWS 191530Z 23500G00KT MM/00 RMK SNOW DEPTH 3.00





000
SAUS46 KLOX 191515
MTRMWS
METAR KMWS 191500Z 04003G05KT 13/M01 RMK SNOW DEPTH 2.00





000
SAUS46 KLOX 191457
MTR9L2
METAR K9L2 191455Z AUTO 17006KT 10SM CLR 14/04 A2996 RMK AO2 SLP139
T01390039 53016 $





000
SAUS46 KLOX 191454
MTRLAX
METAR KLAX 191453Z 25005KT 6SM BR FEW011 SCT200 16/13 A2999 RMK AO2
SLP153 T01560128 53011 $





000
SAUS46 KLOX 191454
MTRMWS
METAR KMWS 191445Z 05003G04KT 13/00 RMK SNOW DEPTH 2.00





000
SAUS46 KLOX 191452
MTRSMX
METAR KSMX 191451Z 31004KT 7SM OVC006 12/09 A3004 RMK AO2 SLP174
T01220094 53017 $





000
SAUS46 KLOX 191449
MTRSDB
METAR KSDB 191448Z AUTO 35013KT 10SM CLR 14/07 A3005 RMK AO2 SLP141
T01390067 53012





000
SAUS46 KLOX 191448
MTRCQT
METAR KCQT 191447Z AUTO 00000KT 8SM CLR 16/11 A2998 RMK AO2 SLP149
T01610111 53010





000
SAUS46 KLOX 191436
MTRMWS
METAR KMWS 191430Z 23500G00KT MM/00 RMK SNOW DEPTH 2.00





000
SAUS46 KLOX 191415
MTRMWS
METAR KMWS 191400Z 08001G02KT 10/M01 RMK SNOW DEPTH 2.00





000
SAUS46 KLOX 191357
MTR9L2
METAR K9L2 191355Z AUTO 16005KT 10SM CLR 12/03 A2995 RMK AO2 SLP133
T01170028 $





000
SAUS46 KLOX 191354
MTRMWS
METAR KMWS 191345Z 01001G01KT 10/M01 RMK SNOW DEPTH 2.00





000
SAUS46 KLOX 191354
MTRLAX
METAR KLAX 191353Z 23003KT 6SM BR SCT011 SCT200 15/13 A2997 RMK AO2
SLP148 T01500133 $





000
SAUS46 KLOX 191353
MTRSMX
METAR KSMX 191351Z 29005KT 7SM OVC008 12/09 A3003 RMK AO2 SLP170
T01220094 $





000
SAUS46 KLOX 191349
MTRSDB
METAR KSDB 191348Z AUTO 35012KT 10SM CLR 12/06 A3003 RMK AO2 SLP133
T01220061





000
SAUS46 KLOX 191348
MTRCQT
METAR KCQT 191347Z AUTO 00000KT 7SM CLR 14/11 A2996 RMK AO2 SLP145
T01390111





000
SAUS46 KLOX 191336
MTRMWS
METAR KMWS 191330Z 23500G00KT MM/M02 RMK SNOW DEPTH 2.00





000
SAUS46 KLOX 191315
MTRMWS
METAR KMWS 191300Z 04502G03KT 08/M04 RMK SNOW DEPTH 2.00





000
SAUS46 KLOX 191257
MTRMWS
METAR KMWS 191245Z 02002G03KT 08/M05 RMK SNOW DEPTH 2.00





000
SAUS46 KLOX 191257
MTR9L2
METAR K9L2 191255Z AUTO 19004KT 10SM CLR 12/03 A2993 RMK AO2 SLP124
T01170028 $





000
SAUS46 KLOX 191254
MTRLAX
METAR KLAX 191253Z 00000KT 8SM FEW009 SCT018 SCT200 15/13 A2995 RMK
AO2 SLP141 T01500128





000
SAUS46 KLOX 191253
MTRSMX
METAR KSMX 191251Z 30006KT 8SM OVC008 12/09 A3000 RMK AO2 SLP161
T01220094 $





000
SAUS46 KLOX 191250
MTRLAX
SPECI KLAX 191248Z 29005KT 8SM SCT009 SCT018 BKN200 14/13 A2996 RMK
AO2





000
SAUS46 KLOX 191249
MTRSDB
METAR KSDB 191248Z AUTO 34011KT 10SM CLR 12/06 A3001 RMK AO2 SLP125
T01170056





000
SAUS46 KLOX 191248
MTRCQT
METAR KCQT 191247Z AUTO 00000KT 8SM CLR 14/11 A2995 RMK AO2 SLP140
T01390111





000
SAUS46 KLOX 191236
MTRMWS
METAR KMWS 191230Z 23500G00KT MM/M03 RMK SNOW DEPTH 2.00





000
SAUS46 KLOX 191235
MTRLAX
SPECI KLAX 191223Z COR 33003KT 9SM FEW007 SCT018 SCT200 14/13 A2996
RMK AO2





000
SAUS46 KLOX 191224
MTRLAX
SPECI KLAX 191223Z 33003KT 9SM FEW007 SCT018 14/13 A2996 RMK AO2





000
SAUS46 KLOX 191215
MTRMWS
METAR KMWS 191200Z 06003G03KT 08/M05 RMK SNOW DEPTH 2.00





000
SAUS46 KLOX 191157
MTR9L2
METAR K9L2 191155Z AUTO 18008KT 10SM CLR 12/01 A2991 RMK AO2 SLP118
T01220011 10178 20122 53004 $





000
SAUS46 KLOX 191154
MTRMWS
METAR KMWS 191145Z 15003G03KT 10/M03 RMK SNOW DEPTH 2.00





000
SAUS46 KLOX 191154
MTRLAX
METAR KLAX 191153Z 27005KT 8SM FEW018 SCT200 14/12 A2996 RMK AO2
SLP142 T01440122 10167 20144 53003





000
SAUS46 KLOX 191152
MTRSMX
METAR KSMX 191151Z AUTO 29004KT 9SM OVC010 13/09 A2999 RMK AO2
SLP157 T01280094 10128 20122 53005 TSNO $





000
SAUS46 KLOX 191149
MTRSDB
METAR KSDB 191148Z AUTO 33010KT 10SM CLR 12/06 A3001 RMK AO2 SLP121
T01170056 10128 20111 55000





000
SAUS46 KLOX 191148
MTRCQT
METAR KCQT 191147Z AUTO 00000KT 8SM CLR 15/12 A2995 RMK AO2 SLP139
T01500117 10172 20150 53001





000
SAUS46 KLOX 191136
MTRMWS
METAR KMWS 191130Z 23500G00KT MM/M06 RMK SNOW DEPTH 2.00





000
SAUS46 KLOX 191115
MTRMWS
METAR KMWS 191100Z 07502G02KT 08/M07 RMK SNOW DEPTH 2.00





000
SAUS46 KLOX 191058
MTR9L2
METAR K9L2 191055Z AUTO 19007KT 10SM CLR 14/01 A2991 RMK AO2 SLP114
T01390011 $





000
SAUS46 KLOX 191057
MTRMWS
METAR KMWS 191045Z 10502G03KT 08/M08 RMK SNOW DEPTH 2.00





000
SAUS46 KLOX 191054
MTRLAX
METAR KLAX 191053Z 00000KT 9SM BKN200 15/12 A2994 RMK AO2 SLP137
T01500117





000
SAUS46 KLOX 191053
MTRSMX
METAR KSMX 191051Z AUTO 27005KT 9SM OVC010 13/09 A2998 RMK AO2
SLP154 T01280094 TSNO $





000
SAUS46 KLOX 191049
MTRSDB
METAR KSDB 191048Z AUTO 30009KT 10SM CLR 12/06 A3000 RMK AO2 SLP119
T01170056





000
SAUS46 KLOX 191048
MTRCQT
METAR KCQT 191047Z AUTO VRB03KT 9SM CLR 16/12 A2993 RMK AO2 SLP134
T01560117





000
SAUS46 KLOX 191036
MTRMWS
METAR KMWS 191030Z 23500G00KT MM/M08 RMK SNOW DEPTH 2.00





000
SAUS46 KLOX 191015
MTRMWS
METAR KMWS 191000Z 13503G03KT 08/M07 RMK SNOW DEPTH 2.00





000
SAUS46 KLOX 190957
MTRMWS
METAR KMWS 190945Z 08003G03KT 08/M06 RMK SNOW DEPTH 2.00





000
SAUS46 KLOX 190957
MTR9L2
METAR K9L2 190955Z AUTO 19006KT 10SM CLR 14/01 A2990 RMK AO2 SLP113
T01440006 $





000
SAUS46 KLOX 190954
MTRLAX
METAR KLAX 190953Z 00000KT 9SM SCT200 15/12 A2994 RMK AO2 SLP137
T01500117





000
SAUS46 KLOX 190953
MTRSMX
METAR KSMX 190951Z AUTO 29005KT 10SM OVC010 13/09 A2997 RMK AO2
SLP150 T01280089 TSNO $





000
SAUS46 KLOX 190949
MTRSDB
METAR KSDB 190948Z AUTO 31009KT 10SM CLR 12/06 A3000 RMK AO2 SLP117
T01170056





000
SAUS46 KLOX 190948
MTRCQT
METAR KCQT 190947Z AUTO 00000KT 9SM CLR 16/11 A2994 RMK AO2 SLP135
T01610111





000
SAUS46 KLOX 190936
MTRMWS
METAR KMWS 190930Z 23500G00KT MM/01 RMK SNOW DEPTH 2.00





000
SAUS46 KLOX 190915
MTRMWS
METAR KMWS 190900Z 08004G04KT 08/02 RMK SNOW DEPTH 2.00





000
SAUS46 KLOX 190857
MTR9L2
METAR K9L2 190855Z AUTO 22011KT 10SM CLR 16/01 A2990 RMK AO2 SLP112
T01610006 50003 $





000
SAUS46 KLOX 190855
MTRLAX
METAR KLAX 190853Z 14003KT 9SM BKN200 16/12 A2995 RMK AO2 SLP139
T01560117 50004





000
SAUS46 KLOX 190854
MTRMWS
METAR KMWS 190845Z 11004G05KT 09/00 RMK SNOW DEPTH 2.00





000
SAUS46 KLOX 190852
MTRSMX
METAR KSMX 190851Z AUTO 27006KT 10SM OVC012 13/09 A2997 RMK AO2
SLP151 T01280094 55006 TSNO $





000
SAUS46 KLOX 190849
MTRSDB
METAR KSDB 190848Z AUTO 30009KT 10SM CLR 12/06 A3001 RMK AO2 SLP119
T01220056 58002





000
SAUS46 KLOX 190848
MTRCQT
METAR KCQT 190847Z AUTO 00000KT 8SM CLR 16/12 A2994 RMK AO2 SLP138
T01560117 50005





000
SAUS46 KLOX 190836
MTRMWS
METAR KMWS 190830Z 23500G00KT MM/M06 RMK SNOW DEPTH 2.00





000
SAUS46 KLOX 190815
MTRMWS
METAR KMWS 190800Z 11504G05KT 09/M06 RMK SNOW DEPTH 2.00





000
SAUS46 KLOX 190757
MTR9L2
METAR K9L2 190755Z AUTO 23012KT 10SM CLR 17/01 A2990 RMK AO2 SLP113
T01670006 $





000
SAUS46 KLOX 190754
MTRMWS
METAR KMWS 190745Z 12004G05KT 07/01 RMK SNOW DEPTH 2.00





000
SAUS46 KLOX 190754
MTRLAX
METAR KLAX 190753Z 11004KT 10SM BKN200 16/12 A2995 RMK AO2 SLP139
T01560117 402220156





000
SAUS46 KLOX 190752
MTRSMX
METAR KSMX 190751Z AUTO 00000KT 10SM OVC012 13/09 A2997 RMK AO2
SLP151 T01280094 402000122 TSNO $





000
SAUS46 KLOX 190749
MTRSDB
METAR KSDB 190748Z AUTO 30008KT 10SM CLR 12/06 A3002 RMK AO2 SLP121
T01220056 402000089





000
SAUS46 KLOX 190748
MTRCQT
METAR KCQT 190747Z AUTO 00000KT 9SM CLR 16/12 A2994 RMK AO2 SLP138
T01610117 402280161





000
SAUS46 KLOX 190736
MTRMWS
METAR KMWS 190730Z 23500G00KT MM/03 RMK SNOW DEPTH 2.00





000
SAUS46 KLOX 190715
MTRMWS
METAR KMWS 190700Z 13504G04KT 08/04 RMK SNOW DEPTH 2.00





000
SAUS46 KLOX 190658
MTR9L2
METAR K9L2 190655Z AUTO 23011KT 10SM CLR 17/03 A2990 RMK AO2 SLP113
T01670028 402720133 $





000
SAUS46 KLOX 190657
MTRMWS
METAR KMWS 190645Z 13502G03KT 08/04 RMK SNOW DEPTH 2.00





000
SAUS46 KLOX 190654
MTRLAX
METAR KLAX 190653Z 21003KT 9SM BKN200 16/12 A2995 RMK AO2 SLP139
T01610122





000
SAUS46 KLOX 190652
MTRSMX
METAR KSMX 190651Z AUTO 00000KT 10SM OVC012 13/09 A2998 RMK AO2
SLP155 T01280094 TSNO $





000
SAUS46 KLOX 190649
MTRSDB
METAR KSDB 190648Z AUTO 23004KT 10SM CLR 12/03 A3002 RMK AO2 SLP125
T01170028





000
SAUS46 KLOX 190648
MTRCQT
METAR KCQT 190647Z AUTO 00000KT 10SM CLR 17/11 A2994 RMK AO2 SLP136
T01670111





000
SAUS46 KLOX 190636
MTRMWS
METAR KMWS 190630Z 23500G00KT MM/02 RMK SNOW DEPTH 2.00





000
SAUS46 KLOX 190615
MTRMWS
METAR KMWS 190600Z 18004G04KT 08/01 RMK SNOW DEPTH 2.00





000
SAUS46 KLOX 190556
MTR9L2
METAR K9L2 190555Z AUTO 25012KT 10SM CLR 18/04 A2989 RMK AO2 SLP109
T01780044 10267 20178 51010 $





000
SAUS46 KLOX 190554
MTRLAX
METAR KLAX 190553Z 16004KT 10SM BKN200 17/12 A2993 RMK AO2 SLP133
T01670117 10189 20161 50008





000
SAUS46 KLOX 190554
MTRMWS
METAR KMWS 190545Z 16004G05KT 08/02 RMK SNOW DEPTH 2.00





000
SAUS46 KLOX 190553
MTRSMX
METAR KSMX 190551Z AUTO 29004KT 10SM OVC012 12/09 A2999 RMK AO2
SLP158 T01220094 10161 20122 51014 TSNO $





000
SAUS46 KLOX 190549
MTRSDB
METAR KSDB 190548Z AUTO 20006KT 10SM CLR 12/02 A3002 RMK AO2 SLP126
T01220022 10183 20111 51014





000
SAUS46 KLOX 190548
MTRCQT
METAR KCQT 190547Z AUTO 00000KT 10SM CLR 17/11 A2993 RMK AO2 SLP132
T01720106 10200 20167 50010





000
SAUS46 KLOX 190536
MTRMWS
METAR KMWS 190530Z 23500G00KT MM/01 RMK SNOW DEPTH 2.00





000
SAUS46 KLOX 190515
MTRMWS
METAR KMWS 190500Z 15504G06KT 09/02 RMK SNOW DEPTH 2.00





000
SAUS46 KLOX 190459
MTRLAX
METAR KLAX 190453Z COR 00000KT 9SM FEW120 BKN200 17/12 A2993 RMK AO2
SLP135 T01670122





000
SAUS46 KLOX 190458
MTR9L2
METAR K9L2 190455Z AUTO 25013KT 10SM CLR 18/05 A2988 RMK AO2 SLP108
T01830050 $





000
SAUS46 KLOX 190457
MTRMWS
METAR KMWS 190445Z 17005G07KT 09/01 RMK SNOW DEPTH 2.00





000
SAUS46 KLOX 190454
MTRLAX
METAR KLAX 190453Z 00000KT 9SM SCT200 17/12 A2993 RMK AO2 SLP135
T01670122





000
SAUS46 KLOX 190452
MTRSMX
METAR KSMX 190451Z AUTO 26006KT 10SM OVC014 13/09 A2999 RMK AO2
SLP158 T01280094 TSNO $





000
SAUS46 KLOX 190449
MTRSDB
METAR KSDB 190448Z AUTO 18008KT 10SM CLR 12/03 A3001 RMK AO2 SLP127
T01220028





000
SAUS46 KLOX 190448
MTRCQT
METAR KCQT 190447Z AUTO 00000KT 10SM CLR 17/11 A2993 RMK AO2 SLP133
T01720111





000
SAUS46 KLOX 190436
MTRMWS
METAR KMWS 190430Z 23500G00KT MM/01 RMK SNOW DEPTH 2.00





000
SAUS46 KLOX 190415
MTRMWS
METAR KMWS 190400Z 18506G07KT 08/04 RMK SNOW DEPTH 2.00





000
SAUS46 KLOX 190358
MTR9L2
METAR K9L2 190355Z AUTO 25011KT 10SM CLR 18/07 A2987 RMK AO2 SLP106
T01830067 $





000
SAUS46 KLOX 190354
MTRMWS
METAR KMWS 190345Z 17006G09KT 08/04 RMK SNOW DEPTH 2.00





000
SAUS46 KLOX 190354
MTRLAX
METAR KLAX 190353Z 25006KT 10SM SCT200 16/12 A2993 RMK AO2 SLP133
T01610117





000
SAUS46 KLOX 190353
MTRSMX
METAR KSMX 190351Z AUTO 27005KT 10SM OVC014 13/09 A2998 RMK AO2
SLP153 T01280089 TSNO $





000
SAUS46 KLOX 190349
MTRSDB
METAR KSDB 190348Z AUTO 19009KT 10SM CLR 12/06 A3000 RMK AO2 SLP125
T01170056





000
SAUS46 KLOX 190348
MTRCQT
METAR KCQT 190347Z AUTO 00000KT 10SM CLR 17/11 A2992 RMK AO2 SLP129
T01720111





000
SAUS46 KLOX 190336
MTRMWS
METAR KMWS 190330Z 23500G00KT MM/06 RMK SNOW DEPTH 2.00





000
SAUS46 KLOX 190316
MTRMWS
METAR KMWS 190300Z 18507G09KT 09/05 RMK SNOW DEPTH 2.00





000
SAUS46 KLOX 190301
MTRSMX
SPECI KSMX 190300Z AUTO 28005KT 10SM OVC014 13/09 A2996 RMK AO2 TSNO
$





000
SAUS46 KLOX 190256
MTR9L2
METAR K9L2 190255Z AUTO 22013KT 10SM CLR 19/07 A2986 RMK AO2 SLP102
T01940072 53021 $





000
SAUS46 KLOX 190254
MTRLAX
METAR KLAX 190253Z 26009KT 10SM FEW120 BKN200 16/12 A2991 RMK AO2
SLP126 T01610117 53005





000
SAUS46 KLOX 190254
MTRMWS
METAR KMWS 190245Z 18007G11KT 10/04 RMK SNOW DEPTH 2.00





000
SAUS46 KLOX 190253
MTRSMX
METAR KSMX 190251Z AUTO 28004KT 10SM OVC016 13/09 A2995 RMK AO2
SLP145 T01330089 51004 TSNO $





000
SAUS46 KLOX 190249
MTRSDB
METAR KSDB 190248Z AUTO 22008KT 10SM CLR 12/08 A2997 RMK AO2 SLP117
T01170078 53007





000
SAUS46 KLOX 190248
MTRCQT
METAR KCQT 190247Z AUTO 00000KT 10SM CLR 17/11 A2990 RMK AO2 SLP122
T01720111 53006





000
SAUS46 KLOX 190236
MTRMWS
METAR KMWS 190230Z 23500G00KT MM/03 RMK SNOW DEPTH 2.00





000
SAUS46 KLOX 190215
MTRMWS
METAR KMWS 190200Z 21504G06KT 12/07 RMK SNOW DEPTH 2.00





000
SAUS46 KLOX 190158
MTR9L2
METAR K9L2 190155Z AUTO 21018G25KT 10SM CLR 22/07 A2983 RMK AO2
SLP092 T02170072 $





000
SAUS46 KLOX 190154
MTRMWS
METAR KMWS 190145Z 21003G05KT 13/03 RMK SNOW DEPTH 3.00





000
SAUS46 KLOX 190154
MTRLAX
METAR KLAX 190153Z 27009KT 10SM FEW020 SCT120 BKN200 18/12 A2989 RMK
AO2 SLP121 T01780117





000
SAUS46 KLOX 190152
MTRSMX
METAR KSMX 190151Z 30007KT 10SM OVC018 13/09 A2995 RMK AO2 SLP143
T01330089 $





000
SAUS46 KLOX 190149
MTRSDB
METAR KSDB 190148Z AUTO 21008KT 10SM CLR 14/08 A2996 RMK AO2 SLP111
T01440083





000
SAUS46 KLOX 190149
MTRCQT
METAR KCQT 190147Z AUTO 00000KT 10SM CLR 18/11 A2988 RMK AO2 SLP116
T01830111





000
SAUS46 KLOX 190136
MTRMWS
METAR KMWS 190130Z 23500G00KT MM/02 RMK SNOW DEPTH 2.00





000
SAUS46 KLOX 190115
MTRMWS
METAR KMWS 190100Z 01002G05KT 14/09 RMK SNOW DEPTH 2.00





000
SAUS46 KLOX 190058
MTR9L2
METAR K9L2 190055Z AUTO 23017G22KT 10SM CLR 24/06 A2980 RMK AO2
TSB32E47 SLP081 T02440056 $





000
SAUS46 KLOX 190054
MTRMWS
METAR KMWS 190045Z 03504G06KT 14/09 RMK SNOW DEPTH 2.00





000
SAUS46 KLOX 190054
MTRLAX
METAR KLAX 190053Z 27011KT 10SM FEW020 SCT120 BKN200 18/12 A2989 RMK
AO2 SLP120 T01780122





000
SAUS46 KLOX 190053
MTRSMX
METAR KSMX 190051Z 30009KT 10SM OVC022 15/09 A2995 RMK AO2 SLP143
T01500089 $





000
SAUS46 KLOX 190052
MTR9L2
SPECI K9L2 190050Z AUTO 23016G23KT 10SM CLR 24/06 A2980 RMK AO2
TSB32E47 $





000
SAUS46 KLOX 190049
MTRSDB
METAR KSDB 190048Z AUTO 20006KT 10SM CLR 16/08 A2995 RMK AO2 SLP105
T01610078





000
SAUS46 KLOX 190048
MTRCQT
METAR KCQT 190047Z AUTO 00000KT 10SM CLR 19/11 A2988 RMK AO2 SLP116
T01940111





000
SAUS46 KLOX 190037
MTR9L2
SPECI K9L2 190035Z AUTO 25015KT 10SM TS CLR 26/05 A2980 RMK AO2
TSB32 $





000
SAUS46 KLOX 190036
MTRMWS
METAR KMWS 190030Z 23500G00KT MM/09 RMK SNOW DEPTH 2.00





000
SAUS46 KLOX 190015
MTRMWS
METAR KMWS 190000Z 31501G02KT 18/10 RMK SNOW DEPTH 2.00





000
SAUS46 KLOX 182358
MTR9L2
METAR K9L2 182355Z AUTO 25013KT 10SM CLR 27/01 A2979 RMK AO2 SLP074
T02670011 10272 20228 56014 $





000
SAUS46 KLOX 182355
MTRLAX
METAR KLAX 182353Z 26015KT 10SM FEW015 SCT038 BKN200 18/12 A2989 RMK
AO2 SLP121 T01830122 10222 20183 56007





000
SAUS46 KLOX 182354
MTRMWS
METAR KMWS 182345Z 03501G03KT 18/08 RMK SNOW DEPTH 3.00





000
SAUS46 KLOX 182352
MTRSMX
METAR KSMX 182351Z 31013KT 10SM BKN020 16/09 A2994 RMK AO2 PK WND
30026/2253 SLP140 T01560094 10200 20156 55001 $





000
SAUS46 KLOX 182349
MTRCQT
METAR KCQT 182347Z AUTO VRB05KT 10SM CLR 20/12 A2988 RMK AO2 SLP116
T02000117 10228 20194 55005





000
SAUS46 KLOX 182349
MTRSDB
METAR KSDB 182348Z AUTO 18008KT 10SM CLR 18/08 A2995 RMK AO2 SLP100
T01830078 10200 20161 56005





000
SAUS46 KLOX 182336
MTRMWS
METAR KMWS 182330Z 23500G00KT MM/07 RMK SNOW DEPTH 3.00





000
SAUS46 KLOX 182315
MTRMWS
METAR KMWS 182300Z 32500G04KT 15/09 RMK SNOW DEPTH 2.00





000
SAUS46 KLOX 182258
MTR9L2
METAR K9L2 182255Z AUTO 19011G17KT 160V220 10SM CLR 27/M03 A2980 RMK
AO2 SLP076 T02671033 $





000
SAUS46 KLOX 182254
MTRMWS
METAR KMWS 182245Z 19002G04KT 12/08 RMK SNOW DEPTH 2.00





000
SAUS46 KLOX 182254
MTRLAX
METAR KLAX 182253Z 26013KT 10SM FEW025 SCT039 BKN120 BKN200 19/12
A2989 RMK AO2 SLP122 T01890122





000
SAUS46 KLOX 182253
MTRSMX
METAR KSMX 182251Z COR 32012KT 10SM BKN025 17/11 A2993 RMK AO2
SLP136 T01720106 $





000
SAUS46 KLOX 182249
MTRSDB
METAR KSDB 182248Z AUTO 16011KT 10SM CLR 19/08 A2995 RMK AO2 SLP100
T01890078





000
SAUS46 KLOX 182249
MTRCQT
METAR KCQT 182247Z AUTO 27007KT 10SM CLR 21/11 A2988 RMK AO2 SLP115
T02060111





000
SAUS46 KLOX 182236
MTRMWS
METAR KMWS 182230Z 23500G00KT MM/09 RMK SNOW DEPTH 3.00





000
SAUS46 KLOX 182215
MTRMWS
METAR KMWS 182200Z 22004G06KT 16/10 RMK SNOW DEPTH 3.00





000
SAUS46 KLOX 182157
MTR9L2
METAR K9L2 182155Z AUTO 16008G16KT 10SM CLR 27/M03 A2981 RMK AO2
SLP080 T02671033 $





000
SAUS46 KLOX 182154
MTRLAX
METAR KLAX 182153Z 24012KT 10SM FEW033 SCT039 BKN130 BKN200 19/12
A2990 RMK AO2 SLP125 T01940117





000
SAUS46 KLOX 182154
MTRMWS
METAR KMWS 182145Z 22002G04KT 16/09 RMK SNOW DEPTH 2.00





000
SAUS46 KLOX 182153
MTRSMX
METAR KSMX 182151Z 31009G18KT 10SM BKN023 18/11 A2994 RMK AO2 SLP138
T01830106 $





000
SAUS46 KLOX 182149
MTRSDB
METAR KSDB 182148Z AUTO 18014KT 10SM FEW029 FEW036 19/08 A2995 RMK
AO2 SLP100 T01890083





000
SAUS46 KLOX 182148
MTRCQT
METAR KCQT 182147Z AUTO VRB06KT 10SM SCT042 BKN120 21/12 A2989 RMK
AO2 SLP120 T02060117





000
SAUS46 KLOX 182136
MTRMWS
METAR KMWS 182130Z 23500G00KT MM/08 RMK SNOW DEPTH 3.00





000
SAUS46 KLOX 182115
MTRMWS
METAR KMWS 182100Z 28502G04KT 18/10 RMK SNOW DEPTH 2.00





000
SAUS46 KLOX 182057
MTR9L2
METAR K9L2 182055Z AUTO 19010G14KT 10SM CLR 26/M02 A2984 RMK AO2
SLP089 T02611017 58008 $





000
SAUS46 KLOX 182054
MTRMWS
METAR KMWS 182045Z 03501G04KT 19/08 RMK SNOW DEPTH 3.00





000
SAUS46 KLOX 182054
MTRLAX
METAR KLAX 182053Z 22011KT 9SM FEW032 BKN040 BKN120 BKN180 20/12
A2991 RMK AO2 SLP127 T02000122 56005





000
SAUS46 KLOX 182052
MTRSMX
METAR KSMX 182051Z 29009KT 10SM BKN023 19/11 A2994 RMK AO2 SLP140
T01890106 58003 $





000
SAUS46 KLOX 182049
MTRSDB
METAR KSDB 182048Z AUTO 17009KT 10SM BKN030 OVC035 19/09 A2996 RMK
AO2 SLP105 T01940089 58004





000
SAUS46 KLOX 182048
MTRCQT
METAR KCQT 182047Z AUTO VRB05KT 10SM BKN044 21/12 A2989 RMK AO2
SLP121 T02110117 56008





000
SAUS46 KLOX 182036
MTRMWS
METAR KMWS 182030Z 23500G00KT MM/10 RMK SNOW DEPTH 3.00





000
SAUS46 KLOX 182015
MTRMWS
METAR KMWS 182000Z 35502G05KT 19/05 RMK SNOW DEPTH 3.00





000
SAUS46 KLOX 181958
MTR9L2
METAR K9L2 181955Z AUTO 23004KT 10SM CLR 24/03 A2985 RMK AO2 SLP093
T02440033 $





000
SAUS46 KLOX 181954
MTRMWS
METAR KMWS 181945Z 23500G00KT MM/03 RMK SNOW DEPTH 3.00





000
SAUS46 KLOX 181954
MTRLAX
METAR KLAX 181953Z 24009KT 10SM FEW035 SCT042 SCT120 BKN180 21/11
A2991 RMK AO2 SLP128 T02110111





000
SAUS46 KLOX 181953
MTRSMX
METAR KSMX 181951Z 10SM BKN023 18/11 A2995 RMK AO2 SLP143 T01830106
$





000
SAUS46 KLOX 181949
MTRSDB
METAR KSDB 181948Z AUTO VRB03KT 10SM BKN034 20/06 A2997 RMK AO2
SLP108 T02000061





000
SAUS46 KLOX 181948
MTRCQT
METAR KCQT 181947Z AUTO 10SM OVC041 22/11 A2990 RMK AO2 SLP124
T02170106





000
SAUS46 KLOX 181936
MTRMWS
METAR KMWS 181930Z 23500G00KT MM/04 RMK SNOW DEPTH 3.00





000
SAUS46 KLOX 181915
MTRMWS
METAR KMWS 181900Z 03003G06KT 17/03 RMK SNOW DEPTH 3.00





000
SAUS46 KLOX 181858
MTR9L2
METAR K9L2 181855Z AUTO 21011G17KT 10SM CLR 24/06 A2986 RMK AO2
SLP097 T02390056 $





000
SAUS46 KLOX 181854
MTRLAX
METAR KLAX 181853Z 11004KT 10SM SCT041 BKN120 BKN180 21/09 A2992 RMK
AO2 SLP130 T02060094





000
SAUS46 KLOX 181854
MTRMWS
METAR KMWS 181845Z 03504G08KT 17/05 RMK SNOW DEPTH 3.00





000
SAUS46 KLOX 181853
MTRSMX
METAR KSMX 181851Z 29010KT 10SM OVC019 17/11 A2996 RMK AO2 SLP146
T01670106





000
SAUS46 KLOX 181849
MTRSDB
METAR KSDB 181848Z AUTO VRB04KT 10SM CLR 18/08 A2997 RMK AO2 SLP109
T01780083





000
SAUS46 KLOX 181848
MTRCQT
METAR KCQT 181847Z AUTO 03004KT 10SM SCT036 21/10 A2991 RMK AO2
SLP127 T02060100





000
SAUS46 KLOX 181836
MTRMWS
METAR KMWS 181830Z 23500G00KT MM/05 RMK SNOW DEPTH 3.00





000
SAUS46 KLOX 181815
MTRMWS
METAR KMWS 181800Z 03005G08KT 13/04 RMK SNOW DEPTH 3.00





000
SAUS46 KLOX 181757
MTR9L2
METAR K9L2 181755Z AUTO 20011KT 10SM CLR 22/07 A2986 RMK AO2 SLP099
T02220067 10228 20133 51008 $





000
SAUS46 KLOX 181754
MTRMWS
METAR KMWS 181745Z 06005G08KT 13/04 RMK SNOW DEPTH 2.00





000
SAUS46 KLOX 181754
MTRLAX
METAR KLAX 181753Z VRB05KT 10SM FEW030 SCT039 BKN180 19/11 A2993 RMK
AO2 SLP132 T01940111 10206 20161 50005





000
SAUS46 KLOX 181752
MTRSMX
METAR KSMX 181751Z 29009KT 8SM BKN013 OVC019 16/11 A2995 RMK AO2
SLP144 T01560106 10156 20128 51010





000
SAUS46 KLOX 181749
MTRSDB
METAR KSDB 181748Z AUTO 33008KT 10SM CLR 16/05 A2998 RMK AO2 SLP112
T01610050 10167 20089 53009 $





000
SAUS46 KLOX 181748
MTRCQT
METAR KCQT 181747Z AUTO VRB04KT 10SM SCT039 21/10 A2992 RMK AO2
SLP130 T02060100 10206 20161 50004





000
SAUS46 KLOX 181736
MTRMWS
METAR KMWS 181730Z 23500G00KT MM/03 RMK SNOW DEPTH 2.00





000
SAUS46 KLOX 181716
MTRMWS
METAR KMWS 181700Z 10506G12KT 12/M01 RMK SNOW DEPTH 3.00





000
SAUS46 KLOX 181657
MTR9L2
METAR K9L2 181655Z AUTO 23012KT 10SM CLR 19/07 A2986 RMK AO2 SLP098
T01940067 $





000
SAUS46 KLOX 181654
MTRMWS
METAR KMWS 181645Z 10004G07KT 11/00 RMK SNOW DEPTH 2.00





000
SAUS46 KLOX 181654
MTRLAX
METAR KLAX 181653Z 12005KT 10SM FEW029 SCT041 BKN130 BKN180 19/11
A2993 RMK AO2 SLP133 T01890111





000
SAUS46 KLOX 181653
MTRSMX
METAR KSMX 181651Z 30009KT 8SM OVC017 16/11 A2995 RMK AO2 SLP143
T01560106





000
SAUS46 KLOX 181649
MTRSDB
METAR KSDB 181648Z AUTO 35010KT 10SM CLR 15/06 A2996 RMK AO2 SLP110
T01500056 $





000
SAUS46 KLOX 181648
MTRCQT
METAR KCQT 181647Z AUTO VRB03KT 10SM FEW030 OVC040 19/11 A2992 RMK
AO2 SLP131 T01890106





000
SAUS46 KLOX 181636
MTRMWS
METAR KMWS 181630Z 23500G00KT MM/03 RMK SNOW DEPTH 2.00





000
SAUS46 KLOX 181615
MTRMWS
METAR KMWS 181600Z 11506G07KT 12/M07 RMK SNOW DEPTH 2.00





000
SAUS46 KLOX 181557
MTRMWS
METAR KMWS 181545Z 26502G04KT 11/03 RMK SNOW DEPTH 2.00





000
SAUS46 KLOX 181557
MTR9L2
METAR K9L2 181555Z AUTO 22014KT 10SM CLR 17/07 A2985 RMK AO2 SLP095
T01720072 $





000
SAUS46 KLOX 181554
MTRLAX
METAR KLAX 181553Z 00000KT 10SM FEW029 BKN041 BKN180 17/11 A2992 RMK
AO2 SLP130 T01720111





000
SAUS46 KLOX 181553
MTRSMX
METAR KSMX 181551Z 33004KT 7SM FEW010 OVC021 15/11 A2993 RMK AO2
SLP137 T01500111





000
SAUS46 KLOX 181549
MTRSDB
METAR KSDB 181548Z AUTO 34011KT 10SM CLR 13/06 A2996 RMK AO2 SLP106
T01280061 $





000
SAUS46 KLOX 181548
MTRCQT
METAR KCQT 181547Z AUTO 00000KT 10SM OVC039 18/10 A2991 RMK AO2
SLP128 T01780100





000
SAUS46 KLOX 181536
MTRMWS
METAR KMWS 181530Z 23500G00KT MM/03 RMK SNOW DEPTH 2.00





000
SAUS46 KLOX 181515
MTRMWS
METAR KMWS 181500Z 22001G02KT 12/03 RMK SNOW DEPTH 2.00





000
SAUS46 KLOX 181459
MTR9L2
METAR K9L2 181455Z AUTO 20011KT 10SM CLR 15/07 A2984 RMK AO2 SLP093
T01500067 53012 $





000
SAUS46 KLOX 181454
MTRLAX
METAR KLAX 181453Z 18004KT 10SM FEW024 BKN033 OVC200 17/11 A2991 RMK
AO2 SLP128 T01720111 53012





000
SAUS46 KLOX 181454
MTRMWS
METAR KMWS 181445Z 14503G07KT 11/00 RMK SNOW DEPTH 2.00





000
SAUS46 KLOX 181452
MTRSMX
METAR KSMX 181451Z 00000KT 6SM HZ OVC021 14/11 A2992 RMK AO2 SLP134
T01390111 53006





000
SAUS46 KLOX 181450
MTRSDB
METAR KSDB 181448Z AUTO 32007KT 10SM CLR 12/06 A2995 RMK AO2 SLP104
T01170061 53010 $





000
SAUS46 KLOX 181448
MTRCQT
METAR KCQT 181447Z AUTO 00000KT 10SM OVC032 17/11 A2991 RMK AO2
SLP126 T01670106 53012 $





000
SAUS46 KLOX 181436
MTRMWS
METAR KMWS 181430Z 23500G00KT MM/M03 RMK SNOW DEPTH 2.00





000
SAUS46 KLOX 181435
MTRSDB
SPECI KSDB 181434Z AUTO 35005KT 9SM FEW006 11/06 A2994 RMK AO2
T01110061 $





000
SAUS46 KLOX 181431
MTRSDB
SPECI KSDB 181430Z AUTO VRB05KT 2SM HZ FEW006 11/07 A2994 RMK AO2
T01060067 $





000
SAUS46 KLOX 181419
MTRSDB
SPECI KSDB 181418Z AUTO 25004KT 1/4SM HZ VV006 09/06 A2993 RMK AO2
T00890061 $





000
SAUS46 KLOX 181415
MTRSDB
SPECI KSDB 181414Z AUTO 25003KT 1/2SM HZ VV009 09/06 A2993 RMK AO2
T00890061 $





000
SAUS46 KLOX 181415
MTRMWS
METAR KMWS 181400Z 11007G10KT 11/M06 RMK SNOW DEPTH 2.00





000
SAUS46 KLOX 181414
MTRSDB
SPECI KSDB 181412Z AUTO 00000KT 1 1/2SM HZ FEW009 09/06 A2993 RMK
AO2 T00940061 $





000
SAUS46 KLOX 181414
MTRSMX
SPECI KSMX 181404Z COR 00000KT 5SM HZ BKN013 OVC021 14/11 A2992 RMK
AO2





000
SAUS46 KLOX 181405
MTRSMX
SPECI KSMX 181404Z 00000KT 5SM HZ SCT013 OVC021 14/11 A2992 RMK AO2





000
SAUS46 KLOX 181403
MTRCQT
SPECI KCQT 181402Z AUTO 00000KT 10SM OVC031 16/11 A2989 RMK AO2
T01610111 $





000
SAUS46 KLOX 181358
MTR9L2
METAR K9L2 181355Z AUTO 18008KT 9SM CLR 14/07 A2982 RMK AO2 SLP086
T01390067 $





000
SAUS46 KLOX 181358
MTRCQT
SPECI KCQT 181357Z AUTO 00000KT 10SM OVC029 17/11 A2988 RMK AO2
T01670111 $





000
SAUS46 KLOX 181355
MTRCQT
SPECI KCQT 181354Z AUTO 00000KT 10SM OVC031 17/11 A2988 RMK AO2
T01670106 $





000
SAUS46 KLOX 181354
MTRMWS
METAR KMWS 181345Z 11005G07KT 11/M07 RMK SNOW DEPTH 2.00





000
SAUS46 KLOX 181354
MTRLAX
METAR KLAX 181353Z 00000KT 10SM FEW022 SCT029 BKN150 BKN200 17/11
A2989 RMK AO2 SLP120 VIRGA N-NE SCT V BKN T01670106





000
SAUS46 KLOX 181352
MTRSMX
METAR KSMX 181351Z 15003KT 3SM BR BKN013 OVC021 13/11 A2991 RMK AO2
SLP131 T01330111





000
SAUS46 KLOX 181349
MTRSDB
METAR KSDB 181348Z AUTO 27006KT 10SM CLR 11/04 A2992 RMK AO2 SLP096
T01060044 $





000
SAUS46 KLOX 181348
MTRCQT
METAR KCQT 181347Z AUTO 00000KT 10SM OVC029 17/11 A2988 RMK AO2
SLP118 T01670106 $





000
SAUS46 KLOX 181347
MTRLAX
SPECI KLAX 181346Z 00000KT 10SM FEW022 SCT029 BKN150 BKN200 16/11
A2989 RMK AO2 VIRGA N-NE SCT V BKN





000
SAUS46 KLOX 181336
MTRMWS
METAR KMWS 181330Z 23500G00KT MM/M06 RMK SNOW DEPTH 2.00





000
SAUS46 KLOX 181315
MTRMWS
METAR KMWS 181300Z 08509G11KT 09/M01 RMK SNOW DEPTH 2.00





000
SAUS46 KLOX 181308
MTRSMX
SPECI KSMX 181306Z 15004KT 2SM BR BKN005 OVC015 13/11 A2990 RMK AO2
SFC VIS 5





000
SAUS46 KLOX 181259
MTR9L2
METAR K9L2 181255Z AUTO 18012KT 10SM CLR 14/06 A2980 RMK AO2 SLP080
T01390061 $





000
SAUS46 KLOX 181258
MTRSMX
METAR KSMX 181251Z COR 16004KT 2SM BR BKN005 OVC015 13/11 A2990 RMK
AO2 CIG 004V009 SLP127 T01280111





000
SAUS46 KLOX 181254
MTRLAX
METAR KLAX 181253Z 15005KT 10SM SCT022 BKN028 17/11 A2988 RMK AO2
SLP115 T01670106





000
SAUS46 KLOX 181254
MTRMWS
METAR KMWS 181245Z 05509G10KT 09/01 RMK SNOW DEPTH 2.00





000
SAUS46 KLOX 181253
MTRSMX
METAR KSMX 181251Z 16004KT 4SM BR BKN005 OVC015 13/11 A2990 RMK AO2
CIG 004V009 SLP127 T01280111





000
SAUS46 KLOX 181250
MTRSDB
METAR KSDB 181248Z AUTO 24007KT 10SM CLR 11/06 A2992 RMK AO2 SLP091
T01110056 $





000
SAUS46 KLOX 181248
MTRCQT
METAR KCQT 181247Z AUTO 14004KT 10SM OVC024 16/11 A2987 RMK AO2
SLP114 T01610106 $





000
SAUS46 KLOX 181241
MTRSMX
SPECI KSMX 181240Z AUTO 16003KT 4SM BR BKN005 OVC010 13/11 A2990 RMK
AO2 TSNO





000
SAUS46 KLOX 181236
MTRMWS
METAR KMWS 181230Z 23500G00KT MM/M03 RMK SNOW DEPTH 2.00





000
SAUS46 KLOX 181232
MTRSMX
SPECI KSMX 181231Z AUTO 15003KT 4SM BR SCT005 BKN010 OVC014 13/11
A2990 RMK AO2 TSNO





000
SAUS46 KLOX 181218
MTRSMX
SPECI KSMX 181217Z AUTO 00000KT 3SM BR OVC012 13/11 A2990 RMK AO2
TSNO





000
SAUS46 KLOX 181215
MTRMWS
METAR KMWS 181200Z 08006G09KT 09/M04 RMK SNOW DEPTH 2.00





000
SAUS46 KLOX 181200
MTRSMX
SPECI KSMX 181158Z AUTO 12003KT 2SM BR OVC010 13/11 A2990 RMK AO2
TSNO





000
SAUS46 KLOX 181158
MTR9L2
METAR K9L2 181155Z AUTO 18006KT 10SM CLR 14/06 A2980 RMK AO2 SLP077
T01390061 10189 20139 56011 $





000
SAUS46 KLOX 181154
MTRLAX
METAR KLAX 181153Z 13005KT 10SM OVC027 17/11 A2988 RMK AO2 SLP116
T01670106 10178 20161 55003





000
SAUS46 KLOX 181154
MTRMWS
METAR KMWS 181145Z 08503G05KT 08/M06 RMK SNOW DEPTH 2.00





000
SAUS46 KLOX 181153
MTRSMX
METAR KSMX 181151Z AUTO 11003KT 2SM BR BKN008 OVC012 13/11 A2990 RMK
AO2 SLP128 T01280111 10139 20122 53002 TSNO





000
SAUS46 KLOX 181149
MTRSDB
METAR KSDB 181148Z AUTO 22006KT 10SM CLR 12/06 A2991 RMK AO2 SLP085
T01170056 10133 20094 56009 $





000
SAUS46 KLOX 181148
MTRCQT
METAR KCQT 181147Z AUTO VRB03KT 10SM OVC021 17/11 A2987 RMK AO2
SLP113 T01670106 10172 20167 55004 $





000
SAUS46 KLOX 181144
MTRSMX
SPECI KSMX 181143Z AUTO 10003KT 2 1/2SM BR BKN006 OVC012 13/11 A2990
RMK AO2 TSNO





000
SAUS46 KLOX 181136
MTRMWS
METAR KMWS 181130Z 23500G00KT MM/M04 RMK SNOW DEPTH 2.00





000
SAUS46 KLOX 181115
MTRMWS
METAR KMWS 181100Z 10004G09KT 10/M04 RMK SNOW DEPTH 2.00





000
SAUS46 KLOX 181058
MTR9L2
METAR K9L2 181055Z AUTO 18010KT 10SM CLR 16/06 A2980 RMK AO2 SLP076
T01560056 $





000
SAUS46 KLOX 181054
MTRMWS
METAR KMWS 181045Z 20005G07KT 09/M05 RMK SNOW DEPTH 2.00





000
SAUS46 KLOX 181054
MTRLAX
METAR KLAX 181053Z 12007KT 10SM OVC027 17/11 A2987 RMK AO2 SLP114
T01670111





000
SAUS46 KLOX 181052
MTRSMX
METAR KSMX 181051Z AUTO 00000KT 6SM HZ OVC008 13/10 A2990 RMK AO2
SLP126 T01330100 TSNO





000
SAUS46 KLOX 181049
MTRSDB
METAR KSDB 181048Z AUTO 21006KT 8SM CLR 11/07 A2992 RMK AO2 SLP086
T01060067 $





000
SAUS46 KLOX 181048
MTRCQT
METAR KCQT 181047Z AUTO 15003KT 10SM OVC022 17/11 A2986 RMK AO2
SLP111 T01670111 $





000
SAUS46 KLOX 181036
MTRMWS
METAR KMWS 181030Z 23500G00KT MM/M03 RMK SNOW DEPTH 2.00





000
SAUS46 KLOX 181036
MTRSMX
SPECI KSMX 181035Z AUTO 00000KT 7SM OVC010 13/11 A2990 RMK AO2 TSNO





000
SAUS46 KLOX 181015
MTRMWS
METAR KMWS 181000Z 17505G09KT 10/M06 RMK SNOW DEPTH 2.00





000
SAUS46 KLOX 181000
MTR9L2
METAR K9L2 180955Z AUTO 25013KT 10SM CLR 17/04 A2980 RMK AO2 SLP076
T01720039 $





000
SAUS46 KLOX 180954
MTRLAX
METAR KLAX 180953Z 11008KT 10SM OVC025 17/11 A2987 RMK AO2 SLP112
T01670111





000
SAUS46 KLOX 180954
MTRMWS
METAR KMWS 180945Z 18504G05KT 10/M03 RMK SNOW DEPTH 2.00





000
SAUS46 KLOX 180953
MTRSMX
METAR KSMX 180951Z AUTO 30005KT 8SM OVC008 13/10 A2990 RMK AO2
SLP126 T01330100 TSNO





000
SAUS46 KLOX 180949
MTRSDB
METAR KSDB 180948Z AUTO 19008KT 10SM CLR 13/04 A2993 RMK AO2 SLP088
T01280039 $





000
SAUS46 KLOX 180948
MTRCQT
METAR KCQT 180947Z AUTO 10005KT 10SM OVC024 17/11 A2986 RMK AO2
SLP111 T01670111 $





000
SAUS46 KLOX 180936
MTRMWS
METAR KMWS 180930Z 23500G00KT MM/M03 RMK SNOW DEPTH 2.00





000
SAUS46 KLOX 180915
MTRMWS
METAR KMWS 180900Z 17005G11KT 09/00 RMK SNOW DEPTH 2.00





000
SAUS46 KLOX 180859
MTR9L2
METAR K9L2 180855Z AUTO 18011KT 10SM CLR 16/06 A2983 RMK AO2 SLP087
T01560061 51003 $





000
SAUS46 KLOX 180854
MTRMWS
METAR KMWS 180845Z 16504G10KT 09/00 RMK SNOW DEPTH 2.00





000
SAUS46 KLOX 180854
MTRLAX
METAR KLAX 180853Z 10007KT 10SM BKN022 17/12 A2989 RMK AO2 SLP119
T01670117 58009





000
SAUS46 KLOX 180852
MTRSMX
METAR KSMX 180851Z AUTO 24004KT 7SM OVC012 13/10 A2990 RMK AO2
SLP128 T01330100 55002 TSNO





000
SAUS46 KLOX 180849
MTRSDB
METAR KSDB 180848Z AUTO 19007KT 10SM CLR 12/05 A2994 RMK AO2 SLP094
T01170050 58005 $





000
SAUS46 KLOX 180848
MTRCQT
METAR KCQT 180847Z AUTO VRB03KT 10SM OVC025 17/11 A2988 RMK AO2
SLP118 T01670111 58010 $





000
SAUS46 KLOX 180836
MTRMWS
METAR KMWS 180830Z 23500G00KT MM/00 RMK SNOW DEPTH 2.00





000
SAUS46 KLOX 180820
MTRLAX
SPECI KLAX 180819Z 10007KT 10SM BKN022 16/12 A2991 RMK AO2





000
SAUS46 KLOX 180815
MTRMWS
METAR KMWS 180800Z 17008G14KT 09/03 RMK SNOW DEPTH 2.00





000
SAUS46 KLOX 180804
MTRSDB
SPECI KSDB 180803Z AUTO 19009KT 10SM SCT001 11/06 A2996 RMK AO2
T01110056 $





000
SAUS46 KLOX 180759
MTRSDB
SPECI KSDB 180758Z AUTO 20007KT 5SM HZ BKN001 12/05 A2996 RMK AO2
T01170050 $





000
SAUS46 KLOX 180758
MTRSDB
SPECI KSDB 180756Z AUTO 19007KT 1 1/4SM HZ BKN001 12/04 A2996 RMK
AO2 T01170044 $





000
SAUS46 KLOX 180758
MTR9L2
METAR K9L2 180755Z AUTO 24005KT 10SM CLR 17/04 A2983 RMK AO2 SLP088
T01670044 $





000
SAUS46 KLOX 180754
MTRMWS
METAR KMWS 180745Z 14008G12KT 09/04 RMK SNOW DEPTH 2.00





000
SAUS46 KLOX 180754
MTRLAX
METAR KLAX 180753Z 09005KT 10SM SCT022 BKN160 16/12 A2990 RMK AO2
SLP124 T01610117 402060144





000
SAUS46 KLOX 180753
MTRSMX
METAR KSMX 180751Z AUTO 29004KT 7SM BKN014 13/10 A2990 RMK AO2
SLP128 T01280100 401780106 TSNO





000
SAUS46 KLOX 180749
MTRSDB
METAR KSDB 180748Z AUTO 18008KT 1/4SM FG VV001 09/08 A2996 RMK AO2
SLP101 T00940078 402440094 $





000
SAUS46 KLOX 180748
MTRCQT
METAR KCQT 180747Z AUTO VRB03KT 10SM SCT022 OVC028 17/12 A2990 RMK
AO2 SLP125 T01670117 402170150 $





000
SAUS46 KLOX 180736
MTRMWS
METAR KMWS 180730Z 23500G00KT MM/09 RMK SNOW DEPTH  M





000
SAUS46 KLOX 180715
MTRMWS
METAR KMWS 180700Z 12509G12KT 08/08 RMK SNOW DEPTH 2.00





000
SAUS46 KLOX 180701
MTRSDB
SPECI KSDB 180659Z AUTO 23007KT 1/4SM FG VV001 10/08 A2995 RMK AO2
T01000083 $





000
SAUS46 KLOX 180658
MTR9L2
METAR K9L2 180655Z AUTO 23011KT 10SM CLR 18/06 A2983 RMK AO2 SLP087
T01780056 402940078 $





000
SAUS46 KLOX 180656
MTRSDB
SPECI KSDB 180655Z AUTO 23008KT 1/4SM FG VV002 11/08 A2995 RMK AO2
T01060083 $





000
SAUS46 KLOX 180654
MTRMWS
METAR KMWS 180645Z 10509G12KT 09/09 RMK SNOW DEPTH  M





000
SAUS46 KLOX 180654
MTRSDB
SPECI KSDB 180652Z AUTO 21008KT 1SM HZ VV002 12/08 A2995 RMK AO2
T01170078 $





000
SAUS46 KLOX 180654
MTRLAX
METAR KLAX 180653Z 10009KT 10SM OVC022 17/12 A2991 RMK AO2 SLP127
T01670117





000
SAUS46 KLOX 180653
MTRSMX
METAR KSMX 180651Z AUTO 00000KT 7SM OVC012 14/11 A2990 RMK AO2
SLP128 T01390106 TSNO





000
SAUS46 KLOX 180649
MTRSDB
METAR KSDB 180648Z AUTO 22007KT 1 1/2SM HZ FEW004 12/07 A2995 RMK
AO2 SLP098 T01170072 $





000
SAUS46 KLOX 180648
MTRCQT
METAR KCQT 180647Z AUTO VRB03KT 10SM FEW019 BKN027 OVC032 17/12
A2990 RMK AO2 SLP124 T01670117 $





000
SAUS46 KLOX 180645
MTRSDB
SPECI KSDB 180643Z AUTO 19010KT 1 1/4SM HZ FEW004 11/08 A2995 RMK
AO2 T01060078 $





000
SAUS46 KLOX 180641
MTRCQT
SPECI KCQT 180640Z AUTO VRB03KT 10SM FEW022 OVC029 17/12 A2990 RMK
AO2 T01670117 $





000
SAUS46 KLOX 180636
MTRMWS
METAR KMWS 180630Z 23500G00KT MM/10 RMK SNOW DEPTH  M





000
SAUS46 KLOX 180631
MTRCQT
SPECI KCQT 180630Z AUTO 13003KT 10SM SCT022 OVC030 17/12 A2990 RMK
AO2 T01670117 $





000
SAUS46 KLOX 180620
MTRSDB
SPECI KSDB 180618Z AUTO 19007KT 5SM HZ FEW003 13/07 A2995 RMK AO2
T01330067 $





000
SAUS46 KLOX 180618
MTRSDB
SPECI KSDB 180616Z AUTO 19009KT 1 1/2SM HZ FEW003 13/07 A2995 RMK
AO2 T01280072 $





000
SAUS46 KLOX 180615
MTRMWS
METAR KMWS 180600Z 14511G18KT 10/09 RMK SNOW DEPTH 2.00





000
SAUS46 KLOX 180613
MTRSDB
SPECI KSDB 180612Z AUTO 19009KT 1SM HZ VV003 12/08 A2995 RMK AO2 VIS
1/4V5 T01170078 $





000
SAUS46 KLOX 180609
MTRSDB
SPECI KSDB 180608Z AUTO 19009KT 1 1/4SM HZ FEW003 11/08 A2995 RMK
AO2 VIS 1/4V5 T01110078 $





000
SAUS46 KLOX 180607
MTRSDB
SPECI KSDB 180606Z AUTO 19009KT 3SM HZ FEW003 11/08 A2996 RMK AO2
T01110083 $





000
SAUS46 KLOX 180603
MTRSDB
SPECI KSDB 180602Z AUTO 20006KT 2 1/2SM HZ FEW003 12/08 A2996 RMK
AO2 T01220078 $





000
SAUS46 KLOX 180558
MTR9L2
METAR K9L2 180555Z AUTO 25010KT 10SM CLR 19/04 A2982 RMK AO2 SLP085
T01890039 10278 20189 51010 $





000
SAUS46 KLOX 180558
MTRSDB
SPECI KSDB 180556Z AUTO 20008KT 170V230 1 1/4SM HZ FEW001 11/08
A2996 RMK AO2 T01110078 $





000
SAUS46 KLOX 180554
MTRLAX
METAR KLAX 180553Z 12005KT 10SM BKN021 OVC026 17/11 A2991 RMK AO2
SLP128 T01670111 10178 20161 50012





000
SAUS46 KLOX 180554
MTRSDB
SPECI KSDB 180552Z AUTO 20008KT 1 1/2SM HZ FEW001 12/08 A2996 RMK
AO2 T01170083 $





000
SAUS46 KLOX 180554
MTRMWS
METAR KMWS 180545Z 16007G13KT 10/08 RMK SNOW DEPTH 2.00





000
SAUS46 KLOX 180552
MTRSMX
METAR KSMX 180551Z AUTO 00000KT 8SM OVC010 13/10 A2991 RMK AO2
SLP130 T01330100 10178 20133 50011 TSNO





000
SAUS46 KLOX 180549
MTRSDB
METAR KSDB 180548Z AUTO 21007KT 10SM CLR 13/08 A2996 RMK AO2 SLP102
T01280078 10194 20117 $





000
SAUS46 KLOX 180548
MTRCQT
METAR KCQT 180547Z AUTO 13004KT 10SM OVC020 17/12 A2992 RMK AO2
SLP129 T01670117 10189 20167 51015 $





000
SAUS46 KLOX 180536
MTRMWS
METAR KMWS 180530Z 23500G00KT MM/06 RMK SNOW DEPTH 2.00





000
SAUS46 KLOX 180519
MTRSMX
SPECI KSMX 180518Z AUTO 00000KT 7SM OVC010 13/10 A2992 RMK AO2 CIG
008V011 TSNO





000
SAUS46 KLOX 180515
MTRMWS
METAR KMWS 180500Z 13511G17KT 10/06 RMK SNOW DEPTH 2.00





000
SAUS46 KLOX 180459
MTRSMX
SPECI KSMX 180458Z AUTO 00000KT 7SM OVC008 13/10 A2991 RMK AO2 TSNO





000
SAUS46 KLOX 180458
MTR9L2
METAR K9L2 180455Z AUTO 25010KT 10SM CLR 21/01 A2982 RMK AO2 SLP084
T02060006 $





000
SAUS46 KLOX 180457
MTRMWS
METAR KMWS 180445Z 16010G15KT 10/05 RMK SNOW DEPTH 2.00





000
SAUS46 KLOX 180454
MTRLAX
METAR KLAX 180453Z VRB05KT 10SM OVC021 17/11 A2992 RMK AO2 SLP130
T01720111





000
SAUS46 KLOX 180452
MTRSMX
METAR KSMX 180451Z AUTO 00000KT 7SM OVC010 13/10 A2991 RMK AO2 CIG
008V012 SLP131 T01330100 TSNO





000
SAUS46 KLOX 180449
MTRSDB
METAR KSDB 180448Z AUTO 20005KT 8SM 13/08 A2996 RMK AO2 SLP106
T01280078 $





000
SAUS46 KLOX 180448
MTRCQT
METAR KCQT 180447Z AUTO VRB03KT 10SM OVC018 17/12 A2991 RMK AO2
SLP128 T01670117 $





000
SAUS46 KLOX 180436
MTRMWS
METAR KMWS 180430Z 23500G00KT MM/04 RMK SNOW DEPTH 2.00





000
SAUS46 KLOX 180415
MTRMWS
METAR KMWS 180400Z 16511G16KT 11/03 RMK SNOW DEPTH 3.00





000
SAUS46 KLOX 180358
MTR9L2
METAR K9L2 180355Z AUTO 25015KT 10SM CLR 22/M03 A2980 RMK AO2 SLP079
T02171028 $





000
SAUS46 KLOX 180354
MTRMWS
METAR KMWS 180345Z 17010G16KT 12/03 RMK SNOW DEPTH 2.00





000
SAUS46 KLOX 180354
MTRLAX
METAR KLAX 180353Z 15005KT 10SM OVC019 17/11 A2990 RMK AO2 SLP124
T01670111





000
SAUS46 KLOX 180353
MTRSMX
METAR KSMX 180351Z AUTO 31005KT 8SM OVC014 13/10 A2989 RMK AO2
SLP125 T01330100 TSNO





000
SAUS46 KLOX 180349
MTRSDB
METAR KSDB 180348Z AUTO 22006KT 10SM CLR 14/07 A2995 RMK AO2 SLP094
T01440072





000
SAUS46 KLOX 180348
MTRCQT
METAR KCQT 180347Z AUTO 00000KT 10SM OVC022 17/12 A2989 RMK AO2
SLP121 T01670117 $





000
SAUS46 KLOX 180336
MTRMWS
METAR KMWS 180330Z 23500G00KT MM/02 RMK SNOW DEPTH 3.00





000
SAUS46 KLOX 180317
MTRSMX
SPECI KSMX 180316Z AUTO 32008KT 8SM OVC014 14/10 A2988 RMK AO2 TSNO





000
SAUS46 KLOX 180315
MTRMWS
METAR KMWS 180300Z 18007G12KT 11/01 RMK SNOW DEPTH 2.00





000
SAUS46 KLOX 180259
MTR9L2
METAR K9L2 180255Z AUTO 25016G22KT 10SM CLR 22/01 A2979 RMK AO2
SLP077 T02220011 53001 $





000
SAUS46 KLOX 180254
MTRMWS
METAR KMWS 180245Z 17508G13KT 12/01 RMK SNOW DEPTH 3.00





000
SAUS46 KLOX 180254
MTRLAX
METAR KLAX 180253Z 24005KT 10SM BKN019 OVC200 16/12 A2988 RMK AO2
SLP116 T01610122 53007





000
SAUS46 KLOX 180253
MTRSMX
METAR KSMX 180251Z 32007KT 8SM OVC016 14/10 A2988 RMK AO2 SLP119
T01390100 53001





000
SAUS46 KLOX 180249
MTRCQT
METAR KCQT 180247Z AUTO 00000KT 10SM OVC021 17/12 A2987 RMK AO2
SLP113 T01720117 53008 $





000
SAUS46 KLOX 180249
MTRSDB
METAR KSDB 180248Z AUTO 18012KT 10SM CLR 14/09 A2993 RMK AO2 SLP092
T01440089 56004





000
SAUS46 KLOX 180236
MTRMWS
METAR KMWS 180230Z 23500G00KT MM/03 RMK SNOW DEPTH 3.00





000
SAUS46 KLOX 180215
MTRMWS
METAR KMWS 180200Z 17010G15KT 13/04 RMK SNOW DEPTH 3.00





000
SAUS46 KLOX 180158
MTR9L2
METAR K9L2 180155Z AUTO 25014G22KT 10SM CLR 24/00 A2978 RMK AO2
SLP076 T02390000 $





000
SAUS46 KLOX 180155
MTRLAX
METAR KLAX 180153Z 26005KT 9SM BKN023 OVC200 17/12 A2986 RMK AO2
SLP111 T01670117





000
SAUS46 KLOX 180154
MTRMWS
METAR KMWS 180145Z 17009G13KT 13/01 RMK SNOW DEPTH 3.00





000
SAUS46 KLOX 180152
MTRSMX
METAR KSMX 180151Z 30008KT 7SM BKN018 14/11 A2986 RMK AO2 SLP115
T01440106





000
SAUS46 KLOX 180149
MTRSDB
METAR KSDB 180148Z AUTO 18014KT 10SM CLR 17/06 A2993 RMK AO2 SLP091
T01670061





000
SAUS46 KLOX 180148
MTRCQT
METAR KCQT 180147Z AUTO 27004KT 9SM OVC024 17/12 A2985 RMK AO2
SLP107 T01720117 $





000
SAUS46 KLOX 180136
MTRMWS
METAR KMWS 180130Z 23500G00KT MM/02 RMK SNOW DEPTH 3.00





000
SAUS46 KLOX 180116
MTRCQT
SPECI KCQT 180114Z AUTO 00000KT 9SM BKN028 18/12 A2985 RMK AO2
T01780117 $





000
SAUS46 KLOX 180101
MTRCQT
SPECI KCQT 180101Z AUTO 00000KT 9SM SCT027 18/12 A2985 RMK AO2
T01830117 $





000
SAUS46 KLOX 180059
MTRCQT
SPECI KCQT 180058Z AUTO 00000KT 10SM BKN027 18/12 A2985 RMK AO2
T01830117 $





000
SAUS46 KLOX 180058
MTR9L2
METAR K9L2 180055Z AUTO 24015G23KT 10SM CLR 26/01 A2979 RMK AO2
SLP078 T02610011 $





000
SAUS46 KLOX 180057
MTRMWS
METAR KMWS 180045Z 18009G12KT 15/00 RMK SNOW DEPTH 3.00





000
SAUS46 KLOX 180054
MTRLAX
METAR KLAX 180053Z 27010KT 9SM BKN025 OVC200 18/11 A2986 RMK AO2
SLP110 T01780111





000
SAUS46 KLOX 180053
MTRSMX
METAR KSMX 180051Z 31009KT 7SM BKN020 17/11 A2987 RMK AO2 SLP116
T01670111





000
SAUS46 KLOX 180049
MTRSDB
METAR KSDB 180048Z AUTO 18014KT 10SM CLR 18/04 A2993 RMK AO2 SLP094
T01780044





000
SAUS46 KLOX 180048
MTRCQT
METAR KCQT 180047Z AUTO 26004KT 10SM FEW031 18/12 A2985 RMK AO2
SLP106 T01830117 $





000
SAUS46 KLOX 180036
MTRMWS
METAR KMWS 180030Z 23500G00KT MM/02 RMK SNOW DEPTH 3.00





000
SAUS46 KLOX 180015
MTRMWS
METAR KMWS 180000Z 22007G08KT 17/02 RMK SNOW DEPTH 3.00





000
SAUS46 KLOX 172358
MTR9L2
METAR K9L2 172355Z AUTO 24020G25KT 10SM CLR 28/02 A2979 RMK AO2
SLP076 T02780022 10294 20228 56014 $





000
SAUS46 KLOX 172355
MTRLAX
METAR KLAX 172353Z 26009KT 10SM OVC200 18/11 A2986 RMK AO2 SLP109
T01780111 10206 20172 58012





000
SAUS46 KLOX 172354
MTRMWS
METAR KMWS 172345Z 20010G15KT 17/00 RMK SNOW DEPTH 4.00





000
SAUS46 KLOX 172352
MTRSMX
METAR KSMX 172351Z 30010KT 8SM OVC018 18/12 A2987 RMK AO2 SLP118
T01780117 10178 20150 57016





000
SAUS46 KLOX 172349
MTRCQT
METAR KCQT 172347Z AUTO 27005KT 10SM CLR 19/12 A2985 RMK AO2 SLP105
T01890117 10217 20178 58008 $





000
SAUS46 KLOX 172349
MTRSDB
METAR KSDB 172348Z AUTO 18011G18KT 10SM CLR 19/04 A2994 RMK AO2
SLP091 T01940044 10244 20194 56013





000
SAUS46 KLOX 172336
MTRMWS
METAR KMWS 172330Z 23500G00KT MM/01 RMK SNOW DEPTH 3.00





000
SAUS46 KLOX 172315
MTRMWS
METAR KMWS 172300Z 23500G00KT MM/00 RMK SNOW DEPTH 4.00





000
SAUS46 KLOX 172258
MTR9L2
METAR K9L2 172255Z AUTO 21005KT 10SM CLR 28/M02 A2979 RMK AO2 SLP077
T02831017 $





000
SAUS46 KLOX 172254
MTRMWS
METAR KMWS 172245Z 21010G18KT 21/01 RMK SNOW DEPTH 4.00





000
SAUS46 KLOX 172254
MTRLAX
METAR KLAX 172253Z 27011KT 10SM BKN200 19/11 A2987 RMK AO2 SLP112
T01890111





000
SAUS46 KLOX 172252
MTRSMX
METAR KSMX 172251Z 27004KT 8SM OVC016 18/12 A2988 RMK AO2 SLP122
T01780117





000
SAUS46 KLOX 172249
MTRCQT
METAR KCQT 172247Z AUTO VRB04KT 10SM CLR 21/12 A2985 RMK AO2 SLP106
T02060117 $





000
SAUS46 KLOX 172249
MTRSDB
METAR KSDB 172248Z AUTO 18012G21KT 10SM CLR 23/02 A2995 RMK AO2
SLP092 T02280017





000
SAUS46 KLOX 172236
MTRMWS
METAR KMWS 172230Z 23500G00KT MM/00 RMK SNOW DEPTH 4.00





000
SAUS46 KLOX 172215
MTRMWS
METAR KMWS 172200Z 23500G00KT MM/M01 RMK SNOW DEPTH 4.00





000
SAUS46 KLOX 172157
MTR9L2
METAR K9L2 172155Z AUTO 00000KT 10SM CLR 29/M03 A2981 RMK AO2 SLP081
T02891033 $





000
SAUS46 KLOX 172154
MTRMWS
METAR KMWS 172145Z 17511G18KT 18/M01 RMK SNOW DEPTH 3.00





000
SAUS46 KLOX 172154
MTRLAX
METAR KLAX 172153Z 27012KT 10SM FEW030 BKN200 20/12 A2988 RMK AO2
SLP118 T02000117





000
SAUS46 KLOX 172153
MTRSMX
METAR KSMX 172151Z VRB03KT 7SM OVC013 16/12 A2991 RMK AO2 SLP130
T01610117





000
SAUS46 KLOX 172149
MTRSDB
METAR KSDB 172148Z AUTO 18012KT 10SM CLR 22/03 A2997 RMK AO2 SLP101
T02220033





000
SAUS46 KLOX 172148
MTRCQT
METAR KCQT 172147Z AUTO VRB03KT 10SM CLR 20/12 A2987 RMK AO2 SLP113
T02000117 $





000
SAUS46 KLOX 172115
MTRMWS
METAR KMWS 172100Z 18009G17KT 21/M03 RMK SNOW DEPTH 4.00





000
SAUS46 KLOX 172057
MTR9L2
METAR K9L2 172055Z AUTO 00000KT 10SM CLR 29/M03 A2983 RMK AO2 SLP087
T02891028 58017 $





000
SAUS46 KLOX 172054
MTRMWS
METAR KMWS 172045Z 19007G11KT 23/01 RMK SNOW DEPTH 4.00





000
SAUS46 KLOX 172054
MTRLAX
METAR KLAX 172053Z 26012KT 10SM SCT030 BKN200 19/11 A2989 RMK AO2
SLP120 T01890111 56012





000
SAUS46 KLOX 172052
MTRSMX
METAR KSMX 172051Z 30005KT 7SM OVC013 16/12 A2992 RMK AO2 SLP134
T01610117 58005





000
SAUS46 KLOX 172049
MTRSDB
METAR KSDB 172048Z AUTO 17012G17KT 10SM CLR 22/01 A2998 RMK AO2
SLP103 T02220011 58003





000
SAUS46 KLOX 172049
MTRCQT
METAR KCQT 172047Z AUTO 00000KT 10SM CLR 22/12 A2987 RMK AO2 SLP113
T02170117 58014 $





000
SAUS46 KLOX 172036
MTRMWS
METAR KMWS 172030Z 23500G00KT MM/M01 RMK SNOW DEPTH 5.00





000
SAUS46 KLOX 172015
MTRMWS
METAR KMWS 172000Z 10505G12KT 21/M03 RMK SNOW DEPTH 4.00





000
SAUS46 KLOX 171958
MTR9L2
METAR K9L2 171955Z AUTO 16006KT 10SM CLR 27/M02 A2986 RMK AO2 SLP096
T02671022 $





000
SAUS46 KLOX 171954
MTRLAX
METAR KLAX 171953Z 25006KT 10SM FEW026 OVC030 20/11 A2989 RMK AO2
SLP122 T02000111





000
SAUS46 KLOX 171954
MTRMWS
METAR KMWS 171945Z 14004G08KT 21/M02 RMK SNOW DEPTH 3.00





000
SAUS46 KLOX 171953
MTRSMX
METAR KSMX 171951Z 29004KT 6SM HZ OVC011 16/12 A2993 RMK AO2 SLP136
T01560117





000
SAUS46 KLOX 171949
MTRSDB
METAR KSDB 171948Z AUTO 15011KT 10SM CLR 23/02 A2999 RMK AO2 SLP103
T02330017





000
SAUS46 KLOX 171948
MTRCQT
METAR KCQT 171947Z AUTO 00000KT 9SM CLR 21/11 A2988 RMK AO2 SLP117
T02060111 $





000
SAUS46 KLOX 171936
MTRMWS
METAR KMWS 171930Z 23500G00KT MM/00 RMK SNOW DEPTH 3.00





000
SAUS46 KLOX 171915
MTRMWS
METAR KMWS 171900Z 13002G06KT 21/03 RMK SNOW DEPTH 4.00





000
SAUS46 KLOX 171857
MTR9L2
METAR K9L2 171855Z AUTO 13004KT 10SM CLR 26/M01 A2987 RMK AO2 SLP101
T02561006 $





000
SAUS46 KLOX 171855
MTRLAX
SPECI KLAX 171841Z COR VRB04KT 9SM SCT024 BKN030 19/11 A2992 RMK AO2





000
SAUS46 KLOX 171854
MTRMWS
METAR KMWS 171845Z 23500G00KT MM/00 RMK SNOW DEPTH 4.00





000
SAUS46 KLOX 171853
MTRSMX
METAR KSMX 171851Z 31005KT 5SM HZ OVC008 16/12 A2994 RMK AO2 SLP139
T01560117





000
SAUS46 KLOX 171849
MTRSDB
METAR KSDB 171848Z AUTO 15012KT 10SM CLR 22/03 A3000 RMK AO2 SLP109
T02170028





000
SAUS46 KLOX 171848
MTRCQT
METAR KCQT 171847Z AUTO 00000KT 9SM SCT026 BKN030 20/12 A2991 RMK
AO2 SLP126 T02000117 $





000
SAUS46 KLOX 171842
MTRLAX
SPECI KLAX 171841Z VRB04KT 9SM SCT024 19/11 A2992 RMK AO2





000
SAUS46 KLOX 171836
MTRMWS
METAR KMWS 171830Z 23500G00KT MM/M01 RMK SNOW DEPTH 4.00





000
SAUS46 KLOX 171815
MTRMWS
METAR KMWS 171800Z 19502G04KT 21/05 RMK SNOW DEPTH 3.00





000
SAUS46 KLOX 171758
MTR9L2
METAR K9L2 171755Z AUTO 00000KT 10SM CLR 23/00 A2988 RMK AO2 SLP107
T02280000 10228 20078 52002 $





000
SAUS46 KLOX 171754
MTRMWS
METAR KMWS 171745Z 23001G04KT 21/03 RMK SNOW DEPTH 4.00





000
SAUS46 KLOX 171754
MTRLAX
METAR KLAX 171753Z 14005G14KT 9SM OVC022 18/11 A2993 RMK AO2 SLP133
T01780106 10178 20156 53012





000
SAUS46 KLOX 171752
MTRSMX
METAR KSMX 171751Z 00000KT 5SM HZ OVC008 15/11 A2994 RMK AO2 CIG
008V012 SLP139 T01500111 10150 20117 51016





000
SAUS46 KLOX 171749
MTRSDB
METAR KSDB 171748Z AUTO 19009KT 10SM CLR 20/04 A2999 RMK AO2 SLP109
T02000039 10200 20128 53010





000
SAUS46 KLOX 171748
MTRCQT
METAR KCQT 171747Z AUTO VRB03KT 8SM OVC023 18/12 A2991 RMK AO2
SLP127 T01780117 10183 20150 51009 $





000
SAUS46 KLOX 171736
MTRMWS
METAR KMWS 171730Z 23500G00KT MM/03 RMK SNOW DEPTH 4.00





000
SAUS46 KLOX 171715
MTRMWS
METAR KMWS 171700Z 12503G06KT 21/M02 RMK SNOW DEPTH 4.00





000
SAUS46 KLOX 171658
MTR9L2
METAR K9L2 171655Z AUTO VRB03KT 10SM CLR 20/M01 A2988 RMK AO2 SLP106
T02001011 $





000
SAUS46 KLOX 171654
MTRMWS
METAR KMWS 171645Z 15502G04KT 22/M03 RMK SNOW DEPTH 4.00





000
SAUS46 KLOX 171654
MTRLAX
METAR KLAX 171653Z VRB05KT 9SM BKN020 17/11 A2991 RMK AO2 SLP128
T01720111





000
SAUS46 KLOX 171653
MTRSMX
METAR KSMX 171651Z 00000KT 5SM HZ OVC006 14/11 A2992 RMK AO2 SLP135
T01440111





000
SAUS46 KLOX 171649
MTRSDB
METAR KSDB 171648Z AUTO 21008KT 10SM CLR 16/06 A2998 RMK AO2 SLP107
T01610056





000
SAUS46 KLOX 171648
MTRCQT
METAR KCQT 171647Z AUTO 00000KT 7SM OVC019 18/12 A2990 RMK AO2
SLP124 T01780117 $





000
SAUS46 KLOX 171636
MTRMWS
METAR KMWS 171630Z 23500G00KT MM/M02 RMK SNOW DEPTH 4.00





000
SAUS46 KLOX 171615
MTRMWS
METAR KMWS 171600Z 12006G07KT 18/M05 RMK SNOW DEPTH 3.00





000
SAUS46 KLOX 171558
MTR9L2
METAR K9L2 171555Z AUTO 12003KT 10SM CLR 17/00 A2988 RMK AO2 SLP109
T01670000 $





000
SAUS46 KLOX 171554
MTRMWS
METAR KMWS 171545Z 18002G05KT 18/M04 RMK SNOW DEPTH 3.00





000
SAUS46 KLOX 171554
MTRLAX
METAR KLAX 171553Z 12006KT 8SM OVC018 16/11 A2990 RMK AO2 SLP125
T01610111





000
SAUS46 KLOX 171553
MTRSMX
METAR KSMX 171551Z 01003KT 3SM HZ OVC006 13/11 A2991 RMK AO2 SFC VIS
4 SLP130 T01330106





000
SAUS46 KLOX 171549
MTRSDB
METAR KSDB 171548Z AUTO 00000KT 10SM CLR 19/00 A2996 RMK AO2 SLP098
T01940000





000
SAUS46 KLOX 171548
MTRCQT
METAR KCQT 171547Z AUTO 13005KT 7SM OVC018 17/11 A2989 RMK AO2
SLP121 T01670111 $





000
SAUS46 KLOX 171536
MTRMWS
METAR KMWS 171530Z 23500G00KT MM/M04 RMK SNOW DEPTH 3.00





000
SAUS46 KLOX 171515
MTRMWS
METAR KMWS 171500Z 14506G08KT 18/M05 RMK SNOW DEPTH 3.00





000
SAUS46 KLOX 171458
MTR9L2
METAR K9L2 171455Z AUTO 00000KT 10SM CLR 14/M02 A2988 RMK AO2 SLP107
T01391022 53018 $





000
SAUS46 KLOX 171454
MTRLAX
METAR KLAX 171453Z 10007KT 8SM OVC016 16/11 A2989 RMK AO2 SLP121
T01560111 53007





000
SAUS46 KLOX 171454
MTRMWS
METAR KMWS 171445Z 16006G08KT 17/M06 RMK SNOW DEPTH 3.00





000
SAUS46 KLOX 171452
MTRSMX
METAR KSMX 171451Z 23005KT 3SM HZ OVC006 13/11 A2989 RMK AO2 SLP123
T01330106 53013





000
SAUS46 KLOX 171449
MTRSDB
METAR KSDB 171448Z AUTO 26005KT 10SM CLR 16/00 A2996 RMK AO2 SLP101
T01610000 53010





000
SAUS46 KLOX 171448
MTRCQT
METAR KCQT 171447Z AUTO VRB03KT 7SM OVC017 16/11 A2988 RMK AO2
SLP118 T01610111 53007 $





000
SAUS46 KLOX 171436
MTRMWS
METAR KMWS 171430Z 23500G00KT MM/M04 RMK SNOW DEPTH 3.00





000
SAUS46 KLOX 171431
MTRSMX
SPECI KSMX 171429Z 23004KT 3SM BR OVC006 13/11 A2988 RMK AO2 CIG
004V009





000
SAUS46 KLOX 171415
MTRMWS
METAR KMWS 171400Z 17503G04KT 14/M05 RMK SNOW DEPTH 3.00





000
SAUS46 KLOX 171359
MTR9L2
METAR K9L2 171355Z AUTO 00000KT 10SM CLR 10/M03 A2986 RMK AO2 SLP103
T01001033 $





000
SAUS46 KLOX 171354
MTRMWS
METAR KMWS 171345Z 18004G05KT 13/M06 RMK SNOW DEPTH 3.00





000
SAUS46 KLOX 171354
MTRLAX
METAR KLAX 171353Z 07005KT 9SM OVC016 16/11 A2987 RMK AO2 SLP115
T01610111





000
SAUS46 KLOX 171353
MTRSMX
METAR KSMX 171351Z 19007KT 2SM BR OVC004 12/11 A2986 RMK AO2 SFC VIS
3 SLP115 T01220106





000
SAUS46 KLOX 171349
MTRSDB
METAR KSDB 171348Z AUTO 28009KT 10SM CLR 16/M01 A2994 RMK AO2 SLP094
T01561011





000
SAUS46 KLOX 171348
MTRCQT
METAR KCQT 171347Z AUTO 00000KT 8SM OVC017 16/11 A2987 RMK AO2
SLP114 T01560111 $





000
SAUS46 KLOX 171348
MTRSMX
SPECI KSMX 171347Z 20005KT 3SM BR OVC004 12/11 A2986 RMK AO2





000
SAUS46 KLOX 171336
MTRMWS
METAR KMWS 171330Z 23500G00KT MM/M06 RMK SNOW DEPTH 3.00





000
SAUS46 KLOX 171315
MTRMWS
METAR KMWS 171300Z 19504G05KT 13/M10 RMK SNOW DEPTH 3.00





000
SAUS46 KLOX 171259
MTR9L2
METAR K9L2 171255Z AUTO 00000KT 10SM CLR 08/M03 A2983 RMK AO2 SLP091
T00831033 $





000
SAUS46 KLOX 171254
MTRLAX
METAR KLAX 171253Z 13003KT 8SM OVC016 16/11 A2987 RMK AO2 SLP111
T01560111





000
SAUS46 KLOX 171254
MTRMWS
METAR KMWS 171245Z 18505G06KT 13/M09 RMK SNOW DEPTH 3.00





000
SAUS46 KLOX 171252
MTRSMX
METAR KSMX 171251Z 15008KT 5SM BR SCT003 SCT015 12/09 A2985 RMK AO2
SLP109 T01170094





000
SAUS46 KLOX 171249
MTRSMX
SPECI KSMX 171247Z 16007KT 5SM BR SCT003 SCT015 12/09 A2985 RMK AO2





000
SAUS46 KLOX 171249
MTRSDB
METAR KSDB 171248Z AUTO 25005KT 10SM CLR 13/01 A2993 RMK AO2 SLP092
T01330011





000
SAUS46 KLOX 171248
MTRCQT
METAR KCQT 171247Z AUTO 00000KT 9SM OVC016 16/11 A2986 RMK AO2
SLP110 T01560111 $





000
SAUS46 KLOX 171236
MTRMWS
METAR KMWS 171230Z 23500G00KT MM/M07 RMK SNOW DEPTH 3.00





000
SAUS46 KLOX 171229
MTRSMX
SPECI KSMX 171228Z AUTO 16006KT 5SM BR BKN003 OVC015 12/09 A2985 RMK
AO2 TSNO





000
SAUS46 KLOX 171215
MTRMWS
METAR KMWS 171200Z 17005G07KT 14/M05 RMK SNOW DEPTH 3.00





000
SAUS46 KLOX 171200
MTR9L2
METAR K9L2 171155Z AUTO 32004KT 10SM CLR 08/M04 A2982 RMK AO2 SLP087
T00831039 10172 20083 55002 $





000
SAUS46 KLOX 171157
MTRCQT
SPECI KCQT 171155Z AUTO 00000KT 9SM OVC015 15/11 A2986 RMK AO2
T01500111 $





000
SAUS46 KLOX 171154
MTRLAX
METAR KLAX 171153Z 12004KT 9SM OVC016 16/11 A2987 RMK AO2 SLP113
T01560111 10161 20144 53004





000
SAUS46 KLOX 171154
MTRMWS
METAR KMWS 171145Z 11504G05KT 13/M08 RMK SNOW DEPTH 3.00





000
SAUS46 KLOX 171152
MTRSMX
METAR KSMX 171151Z AUTO 17004KT 5SM BR OVC005 12/09 A2986 RMK AO2
SLP113 T01170094 10122 20106 51013 TSNO





000
SAUS46 KLOX 171149
MTRSDB
METAR KSDB 171148Z AUTO 33009KT 10SM CLR 16/M02 A2992 RMK AO2 SLP084
T01561017 10167 20144 55007





000
SAUS46 KLOX 171148
MTRCQT
METAR KCQT 171147Z AUTO 00000KT 9SM OVC014 15/12 A2986 RMK AO2
SLP110 T01500117 10161 20150 53001 $





000
SAUS46 KLOX 171136
MTRMWS
METAR KMWS 171130Z 23500G00KT MM/M06 RMK SNOW DEPTH 3.00





000
SAUS46 KLOX 171115
MTRMWS
METAR KMWS 171100Z 06502G02KT 13/M06 RMK SNOW DEPTH 3.00





000
SAUS46 KLOX 171100
MTR9L2
METAR K9L2 171055Z AUTO 02004KT 10SM CLR 09/M04 A2981 RMK AO2 SLP083
T00941039 $





000
SAUS46 KLOX 171054
MTRMWS
METAR KMWS 171045Z 12002G02KT 14/M07 RMK SNOW DEPTH 3.00





000
SAUS46 KLOX 171054
MTRLAX
METAR KLAX 171053Z 15003KT 9SM OVC016 16/11 A2987 RMK AO2 SLP112
T01560111





000
SAUS46 KLOX 171053
MTRSMX
METAR KSMX 171051Z AUTO 17003KT 6SM BR SCT007 SCT017 11/09 A2986 RMK
AO2 SLP112 T01110089 TSNO





000
SAUS46 KLOX 171049
MTRSDB
METAR KSDB 171048Z AUTO 34016KT 10SM CLR 14/02 A2992 RMK AO2 SLP085
T01440017





000
SAUS46 KLOX 171048
MTRCQT
METAR KCQT 171047Z AUTO 00000KT 8SM OVC013 15/12 A2986 RMK AO2
SLP109 T01500117 $





000
SAUS46 KLOX 171036
MTRMWS
METAR KMWS 171030Z 23500G00KT MM/M07 RMK SNOW DEPTH 3.00





000
SAUS46 KLOX 171015
MTRMWS
METAR KMWS 171000Z 21003G04KT 13/M09 RMK SNOW DEPTH 3.00





000
SAUS46 KLOX 170959
MTR9L2
METAR K9L2 170955Z AUTO 00000KT 10SM CLR 13/M04 A2982 RMK AO2 SLP084
T01331044 $





000
SAUS46 KLOX 170955
MTRLAX
METAR KLAX 170953Z 11007KT 10SM BKN014 16/11 A2985 RMK AO2 SLP107
T01560111





000
SAUS46 KLOX 170954
MTRMWS
METAR KMWS 170945Z 23004G05KT 13/M07 RMK SNOW DEPTH 3.00





000
SAUS46 KLOX 170953
MTRSMX
METAR KSMX 170951Z AUTO 17005KT 5SM BR CLR 11/09 A2984 RMK AO2
SLP106 T01110089 TSNO





000
SAUS46 KLOX 170950
MTRSDB
METAR KSDB 170948Z AUTO 34020KT 10SM CLR 14/02 A2993 RMK AO2 PK WND
34027/0855 SLP089 T01440022





000
SAUS46 KLOX 170949
MTRCQT
METAR KCQT 170947Z AUTO 00000KT 9SM OVC013 16/12 A2985 RMK AO2
SLP105 T01560117 $





000
SAUS46 KLOX 170936
MTRMWS
METAR KMWS 170930Z 23500G00KT MM/M06 RMK SNOW DEPTH 3.00





000
SAUS46 KLOX 170915
MTRMWS
METAR KMWS 170900Z 28004G05KT 14/M07 RMK SNOW DEPTH 3.00





000
SAUS46 KLOX 170859
MTR9L2
METAR K9L2 170855Z AUTO 00000KT 10SM CLR 14/M04 A2983 RMK AO2 SLP087
T01391044 50003 $





000
SAUS46 KLOX 170854 COR
MTRSDB
METAR KSDB 170848Z AUTO 34016G24KT 10SM CLR 15/02 A2995 RMK AO2
SLP092 T01500022 58004





000
SAUS46 KLOX 170854
MTRLAX
METAR KLAX 170853Z 12006KT 9SM BKN012 16/12 A2986 RMK AO2 SLP109
T01560117 58002





000
SAUS46 KLOX 170852
MTRSMX
METAR KSMX 170851Z AUTO 17005KT 7SM CLR 11/09 A2982 RMK AO2 SLP100
T01110089 58014 TSNO





000
SAUS46 KLOX 170850 COR
MTRSDB
METAR KSDB 170848Z AUTO 34016G24KT 10SM CLR 15/02 A2995 RMK AO2
SLP092 T01500022 58004





000
SAUS46 KLOX 170848
MTRCQT
METAR KCQT 170847Z AUTO 00000KT 8SM OVC012 16/12 A2986 RMK AO2
SLP109 T01560117 58001 $





000
SAUS46 KLOX 170836
MTRMWS
METAR KMWS 170830Z 23500G00KT MM/M06 RMK SNOW DEPTH 3.00





000
SAUS46 KLOX 170824
MTRLAX
SPECI KLAX 170823Z 07005KT 9SM BKN012 15/12 A2987 RMK AO2





000
SAUS46 KLOX 170815
MTRMWS
METAR KMWS 170800Z 25506G07KT 14/M08 RMK SNOW DEPTH  M





000
SAUS46 KLOX 170803
MTRCQT
SPECI KCQT 170802Z AUTO 11003KT 9SM BKN012 BKN019 15/12 A2987 RMK
AO2 T01500117 $





000
SAUS46 KLOX 170759
MTR9L2
METAR K9L2 170755Z AUTO 00000KT 10SM CLR 17/M04 A2983 RMK AO2 SLP087
T01671039 $





000
SAUS46 KLOX 170754
MTRLAX
METAR KLAX 170753Z 11004KT 8SM FEW012 15/11 A2987 RMK AO2 SLP114
T01500111 401940144





000
SAUS46 KLOX 170754
MTRMWS
METAR KMWS 170745Z 25005G07KT 14/M08 RMK SNOW DEPTH 3.00





000
SAUS46 KLOX 170752
MTRSMX
METAR KSMX 170751Z AUTO 00000KT 6SM BR CLR 12/09 A2985 RMK AO2
SLP108 T01170094 402110100 TSNO





000
SAUS46 KLOX 170749
MTRSDB
METAR KSDB 170748Z AUTO 34012KT 10SM CLR 16/00 A2997 RMK AO2 SLP100
T01560000 402280117





000
SAUS46 KLOX 170748
MTRCQT
METAR KCQT 170747Z AUTO 00000KT 9SM FEW012 15/12 A2988 RMK AO2
SLP115 T01500117 402280139 $





000
SAUS46 KLOX 170736
MTRMWS
METAR KMWS 170730Z 23500G00KT MM/M08 RMK SNOW DEPTH 3.00





000
SAUS46 KLOX 170732
MTRSMX
SPECI KSMX 170731Z AUTO 17004KT 5SM BR SCT014 11/09 A2986 RMK AO2
TSNO





000
SAUS46 KLOX 170717
MTRSMX
SPECI KSMX 170716Z AUTO 17003KT 5SM BR BKN014 12/09 A2986 RMK AO2
TSNO





000
SAUS46 KLOX 170715
MTRMWS
METAR KMWS 170700Z 29504G07KT 13/M07 RMK SNOW DEPTH 3.00





000
SAUS46 KLOX 170700
MTR9L2
METAR K9L2 170655Z AUTO 22008KT 10SM CLR 17/M03 A2983 RMK AO2 SLP085
T01721033 403060089 $





000
SAUS46 KLOX 170654
MTRLAX
METAR KLAX 170653Z 11004KT 7SM CLR 15/11 A2987 RMK AO2 SLP114
T01500111





000
SAUS46 KLOX 170654
MTRMWS
METAR KMWS 170645Z 30504G07KT 12/M08 RMK SNOW DEPTH 3.00





000
SAUS46 KLOX 170653
MTRSMX
METAR KSMX 170651Z AUTO 17005KT 5SM BR FEW014 12/09 A2986 RMK AO2
SLP115 T01170094 TSNO





000
SAUS46 KLOX 170649
MTRSDB
METAR KSDB 170648Z AUTO 33016KT 10SM CLR 16/M02 A2997 RMK AO2 SLP099
T01611022





000
SAUS46 KLOX 170648
MTRCQT
METAR KCQT 170647Z AUTO 10003KT 6SM HZ CLR 16/12 A2986 RMK AO2
SLP111 T01560117 $





000
SAUS46 KLOX 170636
MTRMWS
METAR KMWS 170630Z 23500G00KT MM/M06 RMK SNOW DEPTH 3.00





000
SAUS46 KLOX 170615
MTRMWS
METAR KMWS 170600Z 31004G05KT 13/M07 RMK SNOW DEPTH 3.00





000
SAUS46 KLOX 170559
MTR9L2
METAR K9L2 170555Z AUTO 19011KT 10SM CLR 17/M05 A2982 RMK AO2 SLP084
T01721050 10300 20172 51018 $





000
SAUS46 KLOX 170554
MTRMWS
METAR KMWS 170545Z 30502G04KT 13/M07 RMK SNOW DEPTH 3.00





000
SAUS46 KLOX 170554
MTRLAX
METAR KLAX 170553Z 00000KT 7SM CLR 15/12 A2986 RMK AO2 SLP111
T01500117 10172 20150 51013





000
SAUS46 KLOX 170553
MTRSMX
METAR KSMX 170551Z AUTO 16006KT 6SM HZ CLR 12/09 A2986 RMK AO2
SLP115 T01220094 10189 20122 53013 TSNO





000
SAUS46 KLOX 170549
MTRSDB
METAR KSDB 170548Z AUTO 34014G20KT 10SM CLR 16/M03 A2996 RMK AO2
SLP098 T01561028 10211 20150 51009





000
SAUS46 KLOX 170548
MTRCQT
METAR KCQT 170547Z AUTO 00000KT 6SM HZ CLR 15/12 A2986 RMK AO2
SLP110 T01500117 10194 20150 51016 $





000
SAUS46 KLOX 170536
MTRMWS
METAR KMWS 170530Z 23500G00KT MM/M08 RMK SNOW DEPTH 3.00





000
SAUS46 KLOX 170515
MTRMWS
METAR KMWS 170500Z 32503G04KT 13/M06 RMK SNOW DEPTH 3.00





000
SAUS46 KLOX 170459
MTR9L2
METAR K9L2 170455Z AUTO 19009KT 10SM CLR 19/M03 A2981 RMK AO2 SLP082
T01941033 $





000
SAUS46 KLOX 170454
MTRLAX
METAR KLAX 170453Z 24003KT 7SM FEW010 15/12 A2986 RMK AO2 SLP111
T01500117





000
SAUS46 KLOX 170454
MTRMWS
METAR KMWS 170445Z 33003G04KT 13/M01 RMK SNOW DEPTH 3.00





000
SAUS46 KLOX 170452
MTRSMX
METAR KSMX 170451Z AUTO 15004KT 7SM CLR 13/09 A2985 RMK AO2 SLP109
T01280094 TSNO





000
SAUS46 KLOX 170449
MTRSDB
METAR KSDB 170448Z AUTO 35016G21KT 10SM CLR 16/M01 A2996 RMK AO2 PK
WND 32026/0433 SLP099 T01561011





000
SAUS46 KLOX 170449
MTRCQT
METAR KCQT 170447Z AUTO 00000KT 6SM HZ CLR 16/12 A2985 RMK AO2
SLP108 T01560117 $





000
SAUS46 KLOX 170436
MTRMWS
METAR KMWS 170430Z 23500G00KT MM/00 RMK SNOW DEPTH 3.00





000
SAUS46 KLOX 170415
MTRMWS
METAR KMWS 170400Z 28501G02KT 12/02 RMK SNOW DEPTH 3.00





000
SAUS46 KLOX 170359
MTR9L2
METAR K9L2 170355Z AUTO 22006KT 10SM CLR 21/M01 A2980 RMK AO2 SLP079
T02111011 $





000
SAUS46 KLOX 170354
MTRLAX
METAR KLAX 170353Z 23005KT 8SM FEW010 15/12 A2985 RMK AO2 SLP106
T01500117





000
SAUS46 KLOX 170354
MTRMWS
METAR KMWS 170345Z 20000G01KT 12/04 RMK SNOW DEPTH 3.00





000
SAUS46 KLOX 170353
MTRSMX
METAR KSMX 170351Z AUTO 35005KT 7SM CLR 13/09 A2984 RMK AO2 SLP106
T01330094 TSNO





000
SAUS46 KLOX 170349
MTRSDB
METAR KSDB 170348Z AUTO 32016KT 10SM CLR 16/M02 A2996 RMK AO2 SLP100
T01561022





000
SAUS46 KLOX 170348
MTRCQT
METAR KCQT 170347Z AUTO 28003KT 7SM CLR 16/12 A2983 RMK AO2 SLP101
T01560117 $





000
SAUS46 KLOX 170336
MTRMWS
METAR KMWS 170330Z 23500G00KT MM/03 RMK SNOW DEPTH 3.00





000
SAUS46 KLOX 170316
MTRMWS
METAR KMWS 170300Z 06504G04KT 15/01 RMK SNOW DEPTH 3.00





000
SAUS46 KLOX 170259
MTR9L2
METAR K9L2 170255Z AUTO 27012KT 10SM CLR 23/M02 A2976 RMK AO2 SLP068
T02281017 53016 $





000
SAUS46 KLOX 170254
MTRMWS
METAR KMWS 170245Z 11002G03KT 15/03 RMK SNOW DEPTH 3.00





000
SAUS46 KLOX 170254
MTRLAX
METAR KLAX 170253Z 25005KT 8SM FEW010 15/11 A2983 RMK AO2 SLP099
T01500111 53006





000
SAUS46 KLOX 170253
MTRSMX
METAR KSMX 170251Z 31007KT 6SM HZ CLR 13/09 A2983 RMK AO2 SLP103
T01330094 53006





000
SAUS46 KLOX 170249
MTRSDB
METAR KSDB 170248Z AUTO 33016G25KT 10SM CLR 16/M02 A2993 RMK AO2 PK
WND 34029/0216 SLP095 T01611022 53004





000
SAUS46 KLOX 170248
MTRCQT
METAR KCQT 170247Z AUTO 00000KT 7SM CLR 16/12 A2982 RMK AO2 SLP096
T01610117 53008 $





000
SAUS46 KLOX 170236
MTRMWS
METAR KMWS 170230Z 23500G00KT MM/04 RMK SNOW DEPTH 3.00





000
SAUS46 KLOX 170215
MTRMWS
METAR KMWS 170200Z 04501G02KT 17/06 RMK SNOW DEPTH 3.00





000
SAUS46 KLOX 170159
MTR9L2
METAR K9L2 170155Z AUTO 27015G23KT 10SM CLR 26/00 A2974 RMK AO2
SLP060 T02560000 $





000
SAUS46 KLOX 170155
MTRLAX
METAR KLAX 170153Z 26009KT 7SM FEW010 16/11 A2981 RMK AO2 SLP094
T01560111





000
SAUS46 KLOX 170154
MTRMWS
METAR KMWS 170145Z 34502G03KT 18/06 RMK SNOW DEPTH 3.00





000
SAUS46 KLOX 170152
MTRSMX
METAR KSMX 170151Z 29009KT 6SM HZ CLR 15/10 A2982 RMK AO2 SLP099
T01500100





000
SAUS46 KLOX 170149
MTRSDB
METAR KSDB 170148Z AUTO 34020G26KT 10SM CLR 18/01 A2991 RMK AO2 PK
WND 34026/0144 SLP088 T01780006





000
SAUS46 KLOX 170149
MTRCQT
METAR KCQT 170147Z AUTO VRB05KT 8SM CLR 17/12 A2980 RMK AO2 SLP088
T01720117 $





000
SAUS46 KLOX 170136
MTRMWS
METAR KMWS 170130Z 23500G00KT MM/06 RMK SNOW DEPTH 3.00





000
SAUS46 KLOX 170115
MTRMWS
METAR KMWS 170100Z 01001G02KT 20/06 RMK SNOW DEPTH 3.00





000
SAUS46 KLOX 170059
MTR9L2
METAR K9L2 170055Z AUTO 27020G24KT 10SM CLR 28/M02 A2972 RMK AO2 PK
WND 25026/0018 SLP053 T02831022 $





000
SAUS46 KLOX 170054
MTRMWS
METAR KMWS 170045Z 01002G03KT 20/06 RMK SNOW DEPTH 3.00





000
SAUS46 KLOX 170054
MTRLAX
METAR KLAX 170053Z 24009KT 8SM FEW010 17/11 A2980 RMK AO2 SLP091
T01670111





000
SAUS46 KLOX 170053
MTRSMX
METAR KSMX 170051Z 30011KT 7SM CLR 17/10 A2981 RMK AO2 SLP095
T01720100





000
SAUS46 KLOX 170049
MTRSDB
METAR KSDB 170048Z AUTO 34018KT 10SM CLR 19/02 A2991 RMK AO2 PK WND
35026/0031 SLP087 T01940022





000
SAUS46 KLOX 170048
MTRCQT
METAR KCQT 170047Z AUTO VRB05KT 10SM CLR 19/12 A2979 RMK AO2 SLP086
T01890117 $





000
SAUS46 KLOX 170036
MTRMWS
METAR KMWS 170030Z 23500G00KT MM/06 RMK SNOW DEPTH 3.00





000
SAUS46 KLOX 170015
MTRMWS
METAR KMWS 170000Z 27501G03KT 21/05 RMK SNOW DEPTH 3.00





000
SAUS46 KLOX 162359
MTR9L2
METAR K9L2 162355Z AUTO 26018G23KT 10SM CLR 30/M04 A2971 RMK AO2
SLP048 T03001044 10306 20250 56018 $





000
SAUS46 KLOX 162355
MTRLAX
METAR KLAX 162353Z 25009KT 10SM FEW010 17/11 A2981 RMK AO2 SLP093
T01670111 10189 20167 58009





000
SAUS46 KLOX 162354
MTRMWS
METAR KMWS 162345Z 02501G02KT 21/04 RMK SNOW DEPTH 3.00





000
SAUS46 KLOX 162352
MTRSMX
METAR KSMX 162351Z 29014G21KT 7SM CLR 18/10 A2981 RMK AO2 SLP096
T01830100 10211 20156 56011





000
SAUS46 KLOX 162349
MTRSDB
METAR KSDB 162348Z AUTO 35010G21KT 10SM CLR 21/02 A2992 RMK AO2 PK
WND 34026/2323 SLP086 T02110022 10228 20200 56010





000
SAUS46 KLOX 162349
MTRCQT
METAR KCQT 162347Z AUTO VRB03KT 10SM CLR 19/12 A2979 RMK AO2 SLP086
T01940117 10228 20189 58007 $





000
SAUS46 KLOX 162336
MTRMWS
METAR KMWS 162330Z 23500G00KT MM/04 RMK SNOW DEPTH 3.00





000
SAUS46 KLOX 162315
MTRMWS
METAR KMWS 162300Z 01003G04KT 20/03 RMK SNOW DEPTH 3.00





000
SAUS46 KLOX 162259
MTR9L2
METAR K9L2 162255Z AUTO 23007KT 10SM CLR 30/M07 A2973 RMK AO2 SLP053
T03001072 $





000
SAUS46 KLOX 162254
MTRMWS
METAR KMWS 162245Z 35002G04KT 22/05 RMK SNOW DEPTH 4.00





000
SAUS46 KLOX 162254
MTRLAX
METAR KLAX 162253Z 26010KT 10SM CLR 18/11 A2982 RMK AO2 SLP096
T01780111





000
SAUS46 KLOX 162252
MTRSMX
METAR KSMX 162251Z 31016G20KT 7SM CLR 19/10 A2982 RMK AO2 PK WND
08029/2204 SLP100 T01890100





000
SAUS46 KLOX 162249
MTRSDB
METAR KSDB 162248Z AUTO 33018KT 10SM CLR 21/02 A2992 RMK AO2 PK WND
33029/2157 SLP087 T02110022





000
SAUS46 KLOX 162249
MTRCQT
METAR KCQT 162247Z AUTO VRB04KT 10SM CLR 19/12 A2980 RMK AO2 SLP090
T01940117 $





000
SAUS46 KLOX 162236
MTRMWS
METAR KMWS 162230Z 23500G00KT MM/07 RMK SNOW DEPTH 4.00





    US Dept of Commerce
    National Oceanic and Atmospheric Administration
    National Weather Service
    1325 East West Highway
    Silver Spring, MD 20910
    Page Author: NWS Internet Services Team
Disclaimer
Information Quality
Credits
Glossary
Privacy Policy
Freedom of Information Act (FOIA)
About Us
Career Opportunities